M I D A S
Marine Information and Data Acquisition System
Tripno 1716 of the Zeeleeuw from 2009-06-25 07:14:08 to 2009-06-25 13:53:43
Back to CruiseResearch ActivitiesStationsMapUnderway DataData graphs

EquipmentUnitsComment
TimeDGPSUTC
LatitudeDGPSDM.mWGS84
LongitudeDGPSDM.mWGS84
TemperatureSBE03/SBE38deg celciusITS90
ConductivitySBE21S/mITS90
SalinitySBE21 Practical Salinity Units
ChlorophylAChelsea fluorimeterg/lCalibrated in Aceton
Missing or incorrect values are displayed as -999
Sea surface data collected by the RV Zeeleeuw from 2009-06-25 07:08:44 to 2009-06-25 14:03:05
                                                                                    Next 1000 lines
Time Latitude Longitude Temperature Conductivity Salinity ChlorophylA
2009-06-25 07:08:53 51°13.662 2°55.956 21.7634 0.05044 0.264817 6.242835
2009-06-25 07:08:59 51°13.663 2°55.953 21.7877 0.050234 0.263712 6.242835
2009-06-25 07:09:04 51°13.664 2°55.951 21.8188 0.050543 0.26537 6.242835
2009-06-25 07:09:09 51°13.665 2°55.947 21.791 0.050749 0.266475 6.242835
2009-06-25 07:09:15 51°13.666 2°55.943 21.8194 0.050749 0.266475 6.242835
2009-06-25 07:09:20 51°13.668 2°55.939 21.7981 0.050749 0.266475 6.242835
2009-06-25 07:09:26 51°13.669 2°55.933 21.8042 0.050749 0.266475 6.242835
2009-06-25 07:09:32 51°13.671 2°55.928 21.8176 0.050749 0.266475 6.242835
2009-06-25 07:09:37 51°13.673 2°55.923 21.8219 0.050646 0.265922 6.242835
2009-06-25 07:09:43 51°13.674 2°55.917 21.821 0.050749 0.266475 6.242835
2009-06-25 07:09:48 51°13.676 2°55.912 21.8098 0.050749 0.266475 6.242835
2009-06-25 07:09:53 51°13.678 2°55.907 21.8013 0.050749 0.266479 6.242835
2009-06-25 07:09:57 51°13.679 2°55.902 21.8025 0.050749 0.266475 6.242835
2009-06-25 07:10:03 51°13.681 2°55.895 21.81 0.050646 0.265927 6.242835
2009-06-25 07:10:08 51°13.683 2°55.889 21.8185 0.050852 0.267032 6.242835
2009-06-25 07:10:13 51°13.684 2°55.882 21.8365 0.051058 0.268142 6.242835
2009-06-25 07:10:18 51°13.686 2°55.876 21.8333 0.051058 0.268142 6.242835
2009-06-25 07:10:23 51°13.687 2°55.869 21.8304 0.051058 0.268146 6.242835
2009-06-25 07:10:28 51°13.688 2°55.861 21.8422 0.051263 0.269252 6.242835
2009-06-25 07:10:33 51°13.69 2°55.854 21.8399 0.05116 0.268699 6.242835
2009-06-25 07:10:38 51°13.691 2°55.846 21.8552 0.05116 0.268703 6.242835
2009-06-25 07:10:43 51°13.692 2°55.838 21.8441 0.051263 0.269252 6.242835
2009-06-25 07:10:48 51°13.693 2°55.831 21.844 0.051263 0.269252 6.242835
2009-06-25 07:10:52 51°13.694 2°55.825 21.8383 0.051263 0.269256 6.242835
2009-06-25 07:10:58 51°13.695 2°55.816 21.844 0.051263 0.269256 6.242835
2009-06-25 07:11:03 51°13.696 2°55.808 21.8412 0.051366 0.269809 6.208011
2009-06-25 07:11:08 51°13.697 2°55.801 21.8435 0.051263 0.269256 6.242835
2009-06-25 07:11:12 51°13.698 2°55.795 21.8405 0.051263 0.269256 6.208011
2009-06-25 07:11:17 51°13.698 2°55.788 21.8421 0.051263 0.269256 6.208011
2009-06-25 07:11:23 51°13.699 2°55.78 21.8399 0.051366 0.269809 6.208011
2009-06-25 07:11:28 51°13.7 2°55.773 21.8421 0.051263 0.269256 6.242835
2009-06-25 07:11:33 51°13.7 2°55.767 21.8438 0.051263 0.269256 6.208011
2009-06-25 07:11:37 51°13.701 2°55.762 21.8445 0.051263 0.269256 6.242835
2009-06-25 07:11:42 51°13.701 2°55.757 21.8582 0.053527 0.28144 6.208011
2009-06-25 07:11:48 51°13.701 2°55.754 21.8642 0.052704 0.277008 6.208011
2009-06-25 07:11:52 51°13.702 2°55.752 21.8626 0.052704 0.277008 6.208011
2009-06-25 07:11:57 51°13.702 2°55.751 21.8513 0.053013 0.278669 6.208011
2009-06-25 07:12:02 51°13.703 2°55.751 21.8224 0.053116 0.279228 6.208011
2009-06-25 07:12:07 51°13.703 2°55.751 21.868 0.052807 0.277562 6.208011
2009-06-25 07:12:12 51°13.704 2°55.752 21.8435 0.053013 0.278679 6.208011
2009-06-25 07:12:17 51°13.705 2°55.753 21.8256 0.053013 0.278679 6.208011
2009-06-25 07:12:21 51°13.706 2°55.753 21.8056 0.051881 0.272584 6.208011
2009-06-25 07:12:26 51°13.707 2°55.754 21.7682 0.052087 0.273686 6.208011
2009-06-25 07:12:31 51°13.708 2°55.755 21.7678 0.05116 0.268703 6.208011
2009-06-25 07:12:36 51°13.708 2°55.755 21.7576 0.051572 0.270911 6.208011
2009-06-25 07:12:41 51°13.708 2°55.754 21.7678 0.05116 0.268694 6.208011
2009-06-25 07:12:45 51°13.708 2°55.753 21.7919 0.05116 0.268694 6.208011
2009-06-25 07:12:50 51°13.707 2°55.752 21.8301 0.050955 0.267589 6.208011
2009-06-25 07:12:55 51°13.706 2°55.75 21.8296 0.051675 0.271459 6.208011
2009-06-25 07:13:00 51°13.705 2°55.749 21.8353 0.051881 0.272566 6.208011
2009-06-25 07:13:05 51°13.704 2°55.747 21.8301 0.051881 0.27257 6.208011
2009-06-25 07:13:09 51°13.703 2°55.746 21.8701 0.052601 0.276445 6.208011
2009-06-25 07:13:16 51°13.702 2°55.744 21.8778 0.054968 0.28921 6.208011
2009-06-25 07:13:21 51°13.703 2°55.744 21.9028 0.054968 0.28921 6.208011
2009-06-25 07:13:27 51°13.705 2°55.743 21.8987 0.056512 0.297552 6.208011
2009-06-25 07:13:33 51°13.708 2°55.742 21.8997 0.058673 0.309259 6.208011
2009-06-25 07:13:37 51°13.711 2°55.741 21.8639 0.057232 0.301465 6.208011
2009-06-25 07:13:42 51°13.714 2°55.739 21.8698 0.056409 0.297011 6.173187
2009-06-25 07:13:47 51°13.718 2°55.737 21.8211 0.056409 0.297011 6.173187
2009-06-25 07:13:52 51°13.721 2°55.734 21.8175 0.055997 0.294783 6.208011
2009-06-25 07:13:57 51°13.725 2°55.731 21.8414 0.055997 0.294778 6.173187
2009-06-25 07:14:01 51°13.728 2°55.728 21.8226 0.055483 0.291996 6.173187
2009-06-25 07:14:07 51°13.734 2°55.723 21.8239 0.055586 0.292546 6.173187
2009-06-25 07:14:12 51°13.738 2°55.719 21.8154 0.055277 0.290875 6.173187
2009-06-25 07:14:16 51°13.743 2°55.715 21.8182 0.055277 0.290875 6.173187
2009-06-25 07:14:21 51°13.748 2°55.71 21.8138 0.055277 0.29087 6.173187
2009-06-25 07:14:26 51°13.754 2°55.705 21.8139 0.054865 0.28864 6.173187
2009-06-25 07:14:31 51°13.76 2°55.7 21.8162 0.054968 0.2892 6.173187
2009-06-25 07:14:36 51°13.766 2°55.694 21.8131 0.055071 0.289755 6.173187
2009-06-25 07:14:40 51°13.771 2°55.689 21.8195 0.054659 0.28754 6.173187
2009-06-25 07:14:45 51°13.778 2°55.683 21.8184 0.054762 0.288095 6.173187
2009-06-25 07:14:50 51°13.785 2°55.677 21.8139 0.054762 0.288095 6.173187
2009-06-25 07:14:55 51°13.793 2°55.671 21.8145 0.054762 0.2881 6.173187
2009-06-25 07:15:00 51°13.8 2°55.664 21.8175 0.054454 0.286435 6.173187
2009-06-25 07:15:05 51°13.808 2°55.658 21.8182 0.054659 0.28755 6.173187
2009-06-25 07:15:09 51°13.815 2°55.652 21.8236 0.054968 0.289215 6.173187
2009-06-25 07:15:15 51°13.825 2°55.645 21.8254 0.055174 0.29033 6.173187
2009-06-25 07:15:19 51°13.832 2°55.639 21.8311 0.055174 0.29033 6.173187
2009-06-25 07:15:24 51°13.841 2°55.633 21.8328 0.054762 0.288109 6.173187
2009-06-25 07:15:29 51°13.85 2°55.625 21.832 0.055071 0.289775 6.173187
2009-06-25 07:15:34 51°13.859 2°55.618 21.8378 0.055174 0.290335 6.173187
2009-06-25 07:15:39 51°13.869 2°55.611 21.8417 0.054454 0.28645 6.173187
2009-06-25 07:15:44 51°13.878 2°55.603 21.8394 0.054454 0.28645 6.173187
2009-06-25 07:15:49 51°13.888 2°55.595 21.8423 0.05538 0.29145 6.173187
2009-06-25 07:15:54 51°13.898 2°55.586 21.838 0.054454 0.286454 6.138363
2009-06-25 07:15:59 51°13.908 2°55.578 21.8409 0.054762 0.288114 6.173187
2009-06-25 07:16:04 51°13.919 2°55.569 21.8425 0.054659 0.287554 6.173187
2009-06-25 07:16:09 51°13.929 2°55.56 21.829 0.054145 0.284781 6.173187
2009-06-25 07:16:14 51°13.939 2°55.551 21.8254 0.054145 0.284781 6.173187
2009-06-25 07:16:19 51°13.95 2°55.542 21.8276 0.054556 0.287 6.173187
2009-06-25 07:16:24 51°13.961 2°55.533 21.798 0.05363 0.282013 6.173187
2009-06-25 07:16:29 51°13.971 2°55.524 21.7907 0.054659 0.287554 6.173187
2009-06-25 07:16:33 51°13.98 2°55.517 21.8246 0.054248 0.285335 6.173187
2009-06-25 07:16:39 51°13.993 2°55.507 21.8189 0.054659 0.287559 6.138363
2009-06-25 07:16:44 51°14.004 2°55.499 21.8312 0.054042 0.284231 6.173187
2009-06-25 07:16:49 51°14.016 2°55.49 21.825 0.054042 0.284231 6.173187
2009-06-25 07:16:53 51°14.025 2°55.483 21.8357 0.054454 0.28645 6.173187
2009-06-25 07:16:59 51°14.038 2°55.473 21.8555 0.054659 0.287559 6.138363
2009-06-25 07:17:04 51°14.049 2°55.465 21.8447 0.054865 0.288674 6.138363
2009-06-25 07:17:09 51°14.061 2°55.456 21.8333 0.054248 0.285345 6.138363
2009-06-25 07:17:13 51°14.07 2°55.449 21.8358 0.054248 0.285345 6.138363
2009-06-25 07:17:19 51°14.084 2°55.438 21.8287 0.054454 0.286454 6.173187
2009-06-25 07:17:24 51°14.096 2°55.429 21.8403 0.054248 0.28534 6.138363
2009-06-25 07:17:29 51°14.108 2°55.42 21.8466 0.054968 0.289224 6.138363
2009-06-25 07:17:34 51°14.119 2°55.41 21.8586 0.054556 0.287009 6.173187
2009-06-25 07:17:39 51°14.131 2°55.401 21.8169 0.054762 0.288124 6.138363
2009-06-25 07:17:44 51°14.143 2°55.39 21.8625 0.054762 0.288124 6.138363
2009-06-25 07:17:49 51°14.155 2°55.38 21.8777 0.054968 0.289234 6.138363
2009-06-25 07:17:54 51°14.167 2°55.369 21.871 0.055483 0.29202 6.138363
2009-06-25 07:17:59 51°14.178 2°55.357 21.8547 0.055688 0.293136 6.138363
2009-06-25 07:18:04 51°14.189 2°55.344 21.9022 0.05538 0.291474 6.138363
2009-06-25 07:18:09 51°14.2 2°55.332 21.8792 0.056203 0.295924 6.138363
2009-06-25 07:18:14 51°14.211 2°55.318 21.8163 0.056203 0.295924 6.138363
2009-06-25 07:18:19 51°14.221 2°55.303 21.8483 0.055894 0.294262 6.138363
2009-06-25 07:18:24 51°14.232 2°55.289 21.8574 0.054968 0.289263 6.138363
2009-06-25 07:18:29 51°14.242 2°55.273 21.8264 0.055688 0.293146 6.138363
2009-06-25 07:18:34 51°14.251 2°55.257 21.8452 0.055997 0.294822 6.138363
2009-06-25 07:18:39 51°14.261 2°55.242 21.8375 0.054351 0.285928 6.138363
2009-06-25 07:18:44 51°14.271 2°55.225 21.8523 0.056512 0.297582 6.138363
2009-06-25 07:18:49 51°14.28 2°55.209 21.8455 0.056512 0.297582 6.138363
2009-06-25 07:18:53 51°14.288 2°55.196 21.7874 0.054454 0.286464 6.103539
2009-06-25 07:18:59 51°14.299 2°55.174 21.8343 0.057747 0.304227 6.138363
2009-06-25 07:19:04 51°14.308 2°55.156 21.8031 0.054865 0.288631 6.138363
2009-06-25 07:19:09 51°14.317 2°55.138 21.8233 0.055688 0.293057 6.138363
2009-06-25 07:19:13 51°14.324 2°55.124 21.8347 0.055688 0.293057 6.138363
2009-06-25 07:19:19 51°14.336 2°55.102 21.8041 0.056203 0.295825 6.138363
2009-06-25 07:19:24 51°14.345 2°55.083 21.7629 0.053836 0.283056 6.103539
2009-06-25 07:19:29 51°14.355 2°55.065 21.7764 0.053424 0.280843 6.103539
2009-06-25 07:19:33 51°14.363 2°55.05 21.8236 0.052807 0.277525 6.138363
2009-06-25 07:19:39 51°14.376 2°55.029 21.7733 0.055894 0.294193 6.138363
2009-06-25 07:19:44 51°14.387 2°55.012 21.7723 0.055894 0.294193 6.138363
2009-06-25 07:19:49 51°14.399 2°54.995 21.7819 0.053527 0.281449 6.103539
2009-06-25 07:19:54 51°14.41 2°54.978 21.8171 0.054248 0.285326 6.103539
2009-06-25 07:19:59 51°14.422 2°54.96 21.754 0.05291 0.278116 6.103539
2009-06-25 07:20:04 51°14.434 2°54.943 21.7617 0.051572 0.270906 6.103539
2009-06-25 07:20:09 51°14.446 2°54.927 21.7791 0.05291 0.278097 6.103539
2009-06-25 07:20:14 51°14.459 2°54.911 21.8022 0.055071 0.28976 6.103539
2009-06-25 07:20:19 51°14.472 2°54.896 21.8059 0.055071 0.28976 6.103539
2009-06-25 07:20:24 51°14.485 2°54.879 21.7806 0.054454 0.286469 6.103539
2009-06-25 07:20:29 51°14.497 2°54.862 21.759 0.054042 0.284269 6.103539
2009-06-25 07:20:34 51°14.509 2°54.844 21.795 0.054351 0.285933 6.103539
2009-06-25 07:20:39 51°14.521 2°54.827 21.7856 0.055586 0.29258 6.103539
2009-06-25 07:20:44 51°14.534 2°54.809 21.734 0.055688 0.293146 6.138363
2009-06-25 07:20:49 51°14.546 2°54.791 21.807 0.055688 0.293146 6.138363
2009-06-25 07:20:53 51°14.555 2°54.777 21.7539 0.057644 0.303716 6.103539
2009-06-25 07:20:59 51°14.569 2°54.755 21.7697 0.055277 0.29089 6.103539
2009-06-25 07:21:04 51°14.58 2°54.736 21.7568 0.053322 0.280289 6.103539
2009-06-25 07:21:09 51°14.591 2°54.717 21.7686 0.056718 0.298594 6.103539
2009-06-25 07:21:13 51°14.6 2°54.702 21.7902 0.056718 0.298594 6.103539
2009-06-25 07:21:19 51°14.614 2°54.681 21.7758 0.057541 0.303042 6.103539
2009-06-25 07:21:24 51°14.625 2°54.661 21.727 0.056718 0.298599 6.103539
2009-06-25 07:21:29 51°14.636 2°54.643 21.7788 0.057129 0.300843 6.103539
2009-06-25 07:21:34 51°14.647 2°54.623 21.77 0.054968 0.28919 6.103539
2009-06-25 07:21:39 51°14.658 2°54.604 21.746 0.057335 0.301996 6.103539
2009-06-25 07:21:44 51°14.669 2°54.584 21.7608 0.057335 0.301996 6.103539
2009-06-25 07:21:49 51°14.68 2°54.564 21.7439 0.0561 0.295319 6.103539
2009-06-25 07:21:54 51°14.69 2°54.543 21.755 0.055277 0.29087 6.103539
2009-06-25 07:21:59 51°14.701 2°54.523 21.7058 0.055586 0.292541 6.103539
2009-06-25 07:22:04 51°14.712 2°54.503 21.7632 0.05857 0.308728 6.103539
2009-06-25 07:22:09 51°14.722 2°54.482 21.7338 0.057541 0.30317 6.068715
2009-06-25 07:22:14 51°14.733 2°54.462 21.7648 0.057335 0.302046 6.103539
2009-06-25 07:22:19 51°14.743 2°54.441 21.7437 0.057335 0.302046 6.103539
2009-06-25 07:22:24 51°14.753 2°54.421 21.7236 0.056409 0.297026 6.103539
2009-06-25 07:22:29 51°14.764 2°54.401 21.7589 0.056923 0.299806 6.068715
2009-06-25 07:22:33 51°14.772 2°54.384 21.7506 0.056718 0.298714 6.068715
2009-06-25 07:22:39 51°14.785 2°54.36 21.7597 0.0561 0.295398 6.068715
2009-06-25 07:22:44 51°14.795 2°54.339 21.7398 0.0561 0.295398 6.068715
2009-06-25 07:22:49 51°14.805 2°54.319 21.7146 0.058261 0.307149 6.103539
2009-06-25 07:22:54 51°14.816 2°54.298 21.7512 0.056409 0.297175 6.103539
2009-06-25 07:22:59 51°14.826 2°54.277 21.7193 0.0561 0.295482 6.068715
2009-06-25 07:23:04 51°14.836 2°54.257 21.7469 0.057541 0.303241 6.068715
2009-06-25 07:23:09 51°14.846 2°54.236 21.7576 0.057026 0.300438 6.068715
2009-06-25 07:23:14 51°14.856 2°54.216 21.7392 0.057026 0.300438 6.068715
2009-06-25 07:23:19 51°14.866 2°54.195 21.7294 0.056512 0.297662 6.068715
2009-06-25 07:23:24 51°14.876 2°54.175 21.7665 0.056203 0.295998 6.068715
2009-06-25 07:23:29 51°14.886 2°54.155 21.7198 0.058261 0.30716 6.068715
2009-06-25 07:23:33 51°14.894 2°54.138 21.7579 0.057026 0.300493 6.068715
2009-06-25 07:23:39 51°14.907 2°54.114 21.7523 0.05857 0.308878 6.068715
2009-06-25 07:23:44 51°14.916 2°54.094 21.6982 0.056718 0.298794 6.068715
2009-06-25 07:23:49 51°14.926 2°54.073 21.7494 0.056718 0.298794 6.068715
2009-06-25 07:23:54 51°14.936 2°54.053 21.7617 0.058982 0.31093 6.068715
2009-06-25 07:23:59 51°14.945 2°54.032 21.7226 0.057438 0.302537 6.068715
2009-06-25 07:24:04 51°14.955 2°54.012 21.7123 0.057952 0.305335 6.068715
2009-06-25 07:24:09 51°14.964 2°53.991 21.7166 0.055483 0.291981 6.068715
2009-06-25 07:24:14 51°14.974 2°53.969 21.7426 0.056512 0.297547 6.068715
2009-06-25 07:24:19 51°14.983 2°53.949 21.7234 0.056512 0.297547 6.068715
2009-06-25 07:24:24 51°14.993 2°53.928 21.7485 0.057129 0.300919 6.068715
2009-06-25 07:24:29 51°15.003 2°53.907 21.7327 0.058158 0.306598 6.068715
2009-06-25 07:24:33 51°15.01 2°53.89 21.7043 0.056306 0.296574 6.068715
2009-06-25 07:24:39 51°15.022 2°53.865 21.7389 0.058261 0.307082 6.033891
2009-06-25 07:24:44 51°15.031 2°53.844 21.7362 0.058261 0.307082 6.033891
2009-06-25 07:24:49 51°15.041 2°53.824 21.6917 0.059599 0.314312 6.033891
2009-06-25 07:24:54 51°15.051 2°53.803 21.709 0.05785 0.304901 6.068715
2009-06-25 07:24:59 51°15.06 2°53.783 21.7328 0.058982 0.311103 6.068715
2009-06-25 07:25:04 51°15.07 2°53.762 21.7246 0.057129 0.301116 6.033891
2009-06-25 07:25:09 51°15.08 2°53.741 21.7437 0.058364 0.307919 6.033891
2009-06-25 07:25:14 51°15.09 2°53.721 21.7055 0.058364 0.307919 6.033891
2009-06-25 07:25:19 51°15.1 2°53.701 21.738 0.058879 0.310791 6.068715
2009-06-25 07:25:24 51°15.11 2°53.68 21.7338 0.060525 0.31958 6.033891
2009-06-25 07:25:29 51°15.119 2°53.66 21.731 0.055688 0.293298 6.068715
2009-06-25 07:25:34 51°15.129 2°53.639 21.6995 0.059187 0.312271 6.033891
2009-06-25 07:25:39 51°15.138 2°53.618 21.7044 0.059187 0.312476 6.033891
2009-06-25 07:25:44 51°15.148 2°53.597 21.73 0.056306 0.296734 6.033891
2009-06-25 07:25:49 51°15.157 2°53.576 21.7339 0.056306 0.296734 6.033891
2009-06-25 07:25:53 51°15.165 2°53.559 21.7245 0.060731 0.320703 6.033891
2009-06-25 07:25:59 51°15.177 2°53.534 21.7354 0.055997 0.295 6.033891
2009-06-25 07:26:04 51°15.187 2°53.514 21.7105 0.056203 0.296103 6.033891
2009-06-25 07:26:09 51°15.197 2°53.493 21.7175 0.057129 0.301131 6.033891
2009-06-25 07:26:14 51°15.207 2°53.473 21.7246 0.057129 0.301131 6.033891
2009-06-25 07:26:19 51°15.217 2°53.452 21.7352 0.0561 0.295611 6.033891
2009-06-25 07:26:24 51°15.227 2°53.431 21.7162 0.055894 0.294642 6.033891
2009-06-25 07:26:29 51°15.236 2°53.41 21.7325 0.056923 0.300421 6.033891
2009-06-25 07:26:34 51°15.246 2°53.389 21.734 0.055277 0.291736 6.033891
2009-06-25 07:26:39 51°15.256 2°53.367 21.7314 0.054351 0.286904 6.033891
2009-06-25 07:26:44 51°15.265 2°53.346 21.7373 0.054351 0.286904 6.033891
2009-06-25 07:26:49 51°15.275 2°53.325 21.7023 0.058467 0.309493 6.033891
2009-06-25 07:26:54 51°15.285 2°53.304 21.7247 0.055174 0.291782 6.033891
2009-06-25 07:26:59 51°15.295 2°53.282 21.7512 0.060011 0.317994 5.999067
2009-06-25 07:27:04 51°15.305 2°53.261 21.7196 0.059084 0.312814 6.033891
2009-06-25 07:27:09 51°15.315 2°53.24 21.7245 0.061246 0.323972 5.999067
2009-06-25 07:27:13 51°15.323 2°53.223 21.7403 0.061246 0.323972 5.999067
2009-06-25 07:27:19 51°15.334 2°53.198 21.7191 0.059393 0.31374 5.999067
2009-06-25 07:27:24 51°15.344 2°53.176 21.732 0.056718 0.299276 6.033891
2009-06-25 07:27:29 51°15.354 2°53.155 21.7359 0.058776 0.310442 5.999067
2009-06-25 07:27:34 51°15.364 2°53.134 21.7434 0.056718 0.299297 5.999067
2009-06-25 07:27:39 51°15.374 2°53.113 21.7205 0.057541 0.303782 5.999067
2009-06-25 07:27:44 51°15.384 2°53.092 21.75 0.057438 0.303306 5.999067
2009-06-25 07:27:49 51°15.394 2°53.07 21.7428 0.057438 0.303306 5.999067
2009-06-25 07:27:54 51°15.404 2°53.049 21.7175 0.058467 0.309096 5.999067
2009-06-25 07:27:59 51°15.414 2°53.028 21.7231 0.05785 0.305816 5.999067
2009-06-25 07:28:04 51°15.423 2°53.007 21.7347 0.056203 0.296935 5.999067
2009-06-25 07:28:09 51°15.433 2°52.985 21.731 0.057232 0.302476 5.999067
2009-06-25 07:28:14 51°15.444 2°52.965 21.7183 0.057232 0.302476 5.999067
2009-06-25 07:28:19 51°15.455 2°52.945 21.7133 0.060422 0.319792 5.999067
2009-06-25 07:28:24 51°15.465 2°52.924 21.7316 0.060525 0.32045 5.999067
2009-06-25 07:28:29 51°15.476 2°52.906 21.7303 0.058467 0.309158 5.999067
2009-06-25 07:28:33 51°15.485 2°52.89 21.738 0.058158 0.307419 5.999067
2009-06-25 07:28:39 51°15.499 2°52.869 21.6956 0.058673 0.310271 5.999067
2009-06-25 07:28:44 51°15.511 2°52.852 21.733 0.058673 0.310271 5.999067
2009-06-25 07:28:49 51°15.523 2°52.836 21.7328 0.059805 0.316418 5.999067
2009-06-25 07:28:53 51°15.534 2°52.825 21.6919 0.058467 0.309179 5.999067
2009-06-25 07:28:59 51°15.549 2°52.809 21.7179 0.057952 0.306385 5.999067
2009-06-25 07:29:04 51°15.563 2°52.797 21.7311 0.063921 0.339095 6.033891
2009-06-25 07:29:09 51°15.577 2°52.787 21.721 0.057952 0.306571 5.999067
2009-06-25 07:29:13 51°15.588 2°52.78 21.7151 0.062069 0.328858 6.033891
2009-06-25 07:29:19 51°15.605 2°52.771 21.6982 0.062069 0.328858 6.033891
2009-06-25 07:29:24 51°15.619 2°52.766 21.727 0.060422 0.31989 5.999067
2009-06-25 07:29:29 51°15.634 2°52.762 21.7121 0.060937 0.322838 5.999067
2009-06-25 07:29:34 51°15.648 2°52.76 21.7234 0.058158 0.307523 5.999067
2009-06-25 07:29:39 51°15.663 2°52.757 21.7088 0.061451 0.325345 5.999067
2009-06-25 07:29:44 51°15.677 2°52.756 21.7234 0.061451 0.325345 5.999067
2009-06-25 07:29:49 51°15.691 2°52.755 21.7356 0.059702 0.315938 5.999067
2009-06-25 07:29:54 51°15.705 2°52.755 21.7188 0.061246 0.324361 6.033891
2009-06-25 07:29:59 51°15.719 2°52.755 21.7258 0.06351 0.33683 5.999067
2009-06-25 07:30:04 51°15.733 2°52.754 21.7193 0.059084 0.312534 5.999067
2009-06-25 07:30:09 51°15.748 2°52.751 21.7254 0.060628 0.320874 5.999067
2009-06-25 07:30:14 51°15.762 2°52.75 21.7196 0.060628 0.320874 5.999067
2009-06-25 07:30:19 51°15.777 2°52.747 21.7358 0.059496 0.314798 5.999067
2009-06-25 07:30:24 51°15.792 2°52.744 21.7328 0.059908 0.317256 5.999067
2009-06-25 07:30:29 51°15.807 2°52.741 21.7271 0.059702 0.316222 5.999067
2009-06-25 07:30:34 51°15.822 2°52.738 21.7381 0.058261 0.308457 5.999067
2009-06-25 07:30:39 51°15.837 2°52.735 21.7315 0.058982 0.312439 5.999067
2009-06-25 07:30:44 51°15.851 2°52.731 21.7353 0.058982 0.312439 5.999067
2009-06-25 07:30:49 51°15.866 2°52.728 21.7382 0.058982 0.312481 5.999067
2009-06-25 07:30:53 51°15.878 2°52.724 21.7481 0.05857 0.310272 5.999067
2009-06-25 07:30:59 51°15.897 2°52.719 21.7137 0.060216 0.319283 5.999067
2009-06-25 07:31:04 51°15.912 2°52.716 21.7466 0.057026 0.301909 5.999067
2009-06-25 07:31:09 51°15.926 2°52.711 21.7223 0.063715 0.338436 5.999067
2009-06-25 07:31:13 51°15.939 2°52.707 21.7257 0.057232 0.303089 5.999067
2009-06-25 07:31:19 51°15.957 2°52.703 21.7061 0.057232 0.303089 5.999067
2009-06-25 07:31:24 51°15.972 2°52.697 21.7085 0.061349 0.3255 5.999067
2009-06-25 07:31:29 51°15.986 2°52.694 21.7043 0.057541 0.304768 5.999067
2009-06-25 07:31:33 51°15.998 2°52.689 21.7249 0.05857 0.310404 5.999067
2009-06-25 07:31:39 51°16.016 2°52.684 21.7274 0.059393 0.314872 5.999067
2009-06-25 07:31:44 51°16.031 2°52.678 21.7155 0.059393 0.314872 5.999067
2009-06-25 07:31:49 51°16.046 2°52.673 21.7287 0.057952 0.306976 6.033891
2009-06-25 07:31:54 51°16.061 2°52.668 21.7269 0.059496 0.315299 5.999067
2009-06-25 07:31:59 51°16.075 2°52.663 21.7086 0.056306 0.297865 6.033891
2009-06-25 07:32:04 51°16.09 2°52.658 21.722 0.060011 0.318048 5.999067
2009-06-25 07:32:09 51°16.105 2°52.653 21.7234 0.056512 0.299017 6.033891
2009-06-25 07:32:14 51°16.12 2°52.648 21.739 0.056512 0.299017 6.033891
2009-06-25 07:32:19 51°16.135 2°52.643 21.7209 0.058776 0.311308 6.033891
2009-06-25 07:32:24 51°16.15 2°52.637 21.7241 0.058467 0.309629 5.999067
2009-06-25 07:32:29 51°16.165 2°52.631 21.7318 0.058673 0.310733 6.033891
2009-06-25 07:32:34 51°16.18 2°52.625 21.734 0.056512 0.298972 5.999067
2009-06-25 07:32:39 51°16.195 2°52.619 21.7247 0.059187 0.313543 5.999067
2009-06-25 07:32:44 51°16.21 2°52.613 21.7413 0.058158 0.307996 5.999067
2009-06-25 07:32:49 51°16.225 2°52.607 21.726 0.058158 0.307996 5.999067
2009-06-25 07:32:54 51°16.24 2°52.601 21.7407 0.057644 0.30524 5.999067
2009-06-25 07:32:59 51°16.255 2°52.595 21.7472 0.06176 0.327669 5.999067
2009-06-25 07:33:04 51°16.27 2°52.589 21.7327 0.058261 0.308582 5.999067
2009-06-25 07:33:09 51°16.285 2°52.583 21.7344 0.060011 0.317881 5.999067
2009-06-25 07:33:13 51°16.297 2°52.578 21.7489 0.061348 0.32507 5.999067
2009-06-25 07:33:19 51°16.315 2°52.572 21.7256 0.061348 0.32507 5.999067
2009-06-25 07:33:24 51°16.33 2°52.566 21.7516 0.063818 0.33847 5.999067
2009-06-25 07:33:29 51°16.345 2°52.561 21.743 0.061451 0.325422 5.999067
2009-06-25 07:33:33 51°16.356 2°52.556 21.7438 0.060114 0.318091 5.999067
2009-06-25 07:33:39 51°16.374 2°52.549 21.7445 0.057438 0.303772 5.999067
2009-06-25 07:33:44 51°16.389 2°52.542 21.74 0.057438 0.303772 5.999067
2009-06-25 07:33:49 51°16.404 2°52.536 21.7311 0.060422 0.320291 5.999067
2009-06-25 07:33:53 51°16.416 2°52.532 21.7476 0.059805 0.317018 5.999067
2009-06-25 07:33:59 51°16.434 2°52.525 21.7512 0.059187 0.313607 5.999067
2009-06-25 07:34:04 51°16.449 2°52.519 21.7362 0.060525 0.320895 5.999067
2009-06-25 07:34:09 51°16.464 2°52.514 21.7538 0.05929 0.314199 5.999067
2009-06-25 07:34:14 51°16.479 2°52.509 21.7581 0.05929 0.314199 5.999067
2009-06-25 07:34:19 51°16.494 2°52.504 21.7411 0.059805 0.316996 5.964243
2009-06-25 07:34:24 51°16.509 2°52.498 21.7332 0.060011 0.318134 5.999067
2009-06-25 07:34:29 51°16.524 2°52.493 21.7605 0.060834 0.322682 5.964243
2009-06-25 07:34:34 51°16.539 2°52.488 21.7543 0.058982 0.312566 5.964243
2009-06-25 07:34:39 51°16.554 2°52.482 21.7545 0.060114 0.318749 5.964243
2009-06-25 07:34:44 51°16.569 2°52.477 21.7436 0.060628 0.321571 5.964243
2009-06-25 07:34:49 51°16.584 2°52.471 21.7615 0.060628 0.321571 5.964243
2009-06-25 07:34:54 51°16.599 2°52.466 21.7534 0.06176 0.327775 5.964243
2009-06-25 07:34:59 51°16.614 2°52.461 21.7478 0.058673 0.310922 5.964243
2009-06-25 07:35:04 51°16.629 2°52.455 21.752 0.061554 0.326607 5.964243
2009-06-25 07:35:09 51°16.644 2°52.45 21.7595 0.057232 0.303012 5.964243
2009-06-25 07:35:13 51°16.656 2°52.447 21.729 0.057232 0.303012 5.964243
2009-06-25 07:35:19 51°16.674 2°52.442 21.7624 0.060319 0.319789 5.964243
2009-06-25 07:35:24 51°16.689 2°52.439 21.7604 0.064745 0.343961 5.964243
2009-06-25 07:35:29 51°16.704 2°52.436 21.7467 0.059599 0.315832 5.964243
2009-06-25 07:35:33 51°16.716 2°52.434 21.7655 0.059908 0.317369 5.964243
2009-06-25 07:35:39 51°16.734 2°52.431 21.7431 0.062583 0.331978 5.964243
2009-06-25 07:35:44 51°16.749 2°52.428 21.7646 0.062583 0.331978 5.964243
2009-06-25 07:35:49 51°16.764 2°52.425 21.7616 0.062686 0.332534 5.964243
2009-06-25 07:35:53 51°16.775 2°52.423 21.7645 0.060525 0.320754 5.964243
2009-06-25 07:35:59 51°16.793 2°52.419 21.7586 0.059702 0.316232 5.964243
2009-06-25 07:36:04 51°16.807 2°52.416 21.7682 0.063098 0.334742 5.964243
2009-06-25 07:36:09 51°16.822 2°52.413 21.7486 0.063304 0.335843 5.964243
2009-06-25 07:36:14 51°16.836 2°52.41 21.7687 0.059393 0.314461 5.964243
2009-06-25 07:36:19 51°16.851 2°52.408 21.7495 0.059393 0.314461 5.964243
2009-06-25 07:36:24 51°16.866 2°52.406 21.764 0.062069 0.329126 5.964243
2009-06-25 07:36:29 51°16.88 2°52.406 21.7456 0.059908 0.31746 5.964243
2009-06-25 07:36:34 51°16.895 2°52.405 21.7658 0.058467 0.309739 5.964243
2009-06-25 07:36:39 51°16.909 2°52.406 21.7594 0.059908 0.317659 5.964243
2009-06-25 07:36:44 51°16.924 2°52.406 21.7581 0.059908 0.317864 5.964243
2009-06-25 07:36:49 51°16.938 2°52.407 21.769 0.059908 0.317864 5.964243
2009-06-25 07:36:54 51°16.952 2°52.407 21.7629 0.061143 0.324653 5.964243
2009-06-25 07:36:59 51°16.967 2°52.409 21.759 0.054968 0.29098 5.964243
2009-06-25 07:37:04 51°16.981 2°52.41 21.7502 0.06423 0.341489 5.964243
2009-06-25 07:37:09 51°16.995 2°52.412 21.7761 0.063407 0.337012 5.964243
2009-06-25 07:37:14 51°17.01 2°52.413 21.762 0.063407 0.337012 5.964243
2009-06-25 07:37:19 51°17.024 2°52.415 21.7778 0.061349 0.325633 5.964243
2009-06-25 07:37:25 51°17.041 2°52.417 21.7609 0.063201 0.335634 5.964243
2009-06-25 07:37:29 51°17.053 2°52.418 21.7762 0.062686 0.332902 5.964243
2009-06-25 07:37:33 51°17.064 2°52.42 21.7649 0.060937 0.323331 5.929418
2009-06-25 07:37:39 51°17.081 2°52.422 21.7798 0.059805 0.317077 5.929418
2009-06-25 07:37:44 51°17.096 2°52.423 21.778 0.059805 0.317077 5.929418
2009-06-25 07:37:49 51°17.11 2°52.425 21.7759 0.063407 0.336811 5.964243
2009-06-25 07:37:53 51°17.122 2°52.426 21.7828 0.05929 0.314396 5.929418
2009-06-25 07:37:59 51°17.139 2°52.426 21.772 0.062789 0.333611 5.964243
2009-06-25 07:38:04 51°17.153 2°52.426 21.7747 0.062686 0.333077 5.929418
2009-06-25 07:38:09 51°17.168 2°52.426 21.7828 0.060319 0.320006 5.964243
2009-06-25 07:38:13 51°17.179 2°52.426 21.7789 0.060628 0.32163 5.964243
2009-06-25 07:38:19 51°17.197 2°52.425 21.7886 0.060628 0.32163 5.964243
2009-06-25 07:38:24 51°17.211 2°52.426 21.7709 0.066082 0.351585 5.929418
2009-06-25 07:38:29 51°17.226 2°52.427 21.7818 0.062481 0.331782 5.929418
2009-06-25 07:38:34 51°17.24 2°52.428 21.7881 0.060011 0.318177 5.929418
2009-06-25 07:38:39 51°17.254 2°52.429 21.7734 0.062995 0.334487 5.929418
2009-06-25 07:38:44 51°17.269 2°52.43 21.7892 0.063715 0.338471 5.929418
2009-06-25 07:38:49 51°17.283 2°52.431 21.7793 0.063715 0.338471 5.929418
2009-06-25 07:38:54 51°17.298 2°52.432 21.7905 0.063201 0.335692 5.929418
2009-06-25 07:38:59 51°17.312 2°52.433 21.7835 0.061966 0.328882 5.929418
2009-06-25 07:39:04 51°17.326 2°52.434 21.7952 0.060834 0.322709 5.929418
2009-06-25 07:39:09 51°17.34 2°52.435 21.7765 0.066597 0.354419 5.929418
2009-06-25 07:39:14 51°17.355 2°52.436 21.7921 0.066597 0.354419 5.929418
2009-06-25 07:39:19 51°17.369 2°52.437 21.7923 0.062686 0.333032 5.929418
2009-06-25 07:39:24 51°17.383 2°52.438 21.7955 0.064333 0.341942 5.894594
2009-06-25 07:39:29 51°17.398 2°52.439 21.7904 0.060319 0.319947 5.929418
2009-06-25 07:39:34 51°17.412 2°52.44 21.7894 0.062686 0.332913 5.929418
2009-06-25 07:39:39 51°17.427 2°52.441 21.7993 0.062069 0.329567 5.929418
2009-06-25 07:39:44 51°17.441 2°52.442 21.7965 0.062069 0.329567 5.929418
2009-06-25 07:39:49 51°17.455 2°52.443 21.7836 0.065053 0.345933 5.929418
2009-06-25 07:39:53 51°17.467 2°52.444 21.7953 0.062069 0.329589 5.929418
2009-06-25 07:39:59 51°17.484 2°52.445 21.7944 0.062172 0.330141 5.929418
2009-06-25 07:40:04 51°17.498 2°52.446 21.7989 0.06176 0.327903 5.929418
2009-06-25 07:40:09 51°17.513 2°52.447 21.798 0.059908 0.317826 5.929418
2009-06-25 07:40:13 51°17.524 2°52.448 21.8049 0.062995 0.33472 5.929418
2009-06-25 07:40:19 51°17.541 2°52.449 21.7893 0.062995 0.33472 5.929418
2009-06-25 07:40:24 51°17.556 2°52.449 21.7935 0.059496 0.315684 5.894594
2009-06-25 07:40:29 51°17.57 2°52.45 21.8003 0.061966 0.329189 5.894594
2009-06-25 07:40:34 51°17.584 2°52.451 21.7969 0.060731 0.322449 5.929418
2009-06-25 07:40:39 51°17.599 2°52.452 21.8058 0.062481 0.332036 5.929418
2009-06-25 07:40:44 51°17.613 2°52.453 21.7986 0.064847 0.345041 5.929418
2009-06-25 07:40:49 51°17.627 2°52.455 21.8122 0.064847 0.345041 5.929418
2009-06-25 07:40:54 51°17.641 2°52.456 21.8037 0.064436 0.342727 5.929418
2009-06-25 07:40:59 51°17.656 2°52.457 21.8154 0.060628 0.321805 5.929418
2009-06-25 07:41:04 51°17.67 2°52.458 21.7979 0.065671 0.349322 5.929418
2009-06-25 07:41:09 51°17.684 2°52.46 21.8107 0.06495 0.345346 5.929418
2009-06-25 07:41:14 51°17.699 2°52.461 21.8136 0.06495 0.345346 5.929418
2009-06-25 07:41:19 51°17.713 2°52.462 21.8025 0.063304 0.336317 5.894594
2009-06-25 07:41:24 51°17.727 2°52.463 21.8149 0.063407 0.336897 5.929418
2009-06-25 07:41:29 51°17.742 2°52.464 21.8173 0.062892 0.33414 5.894594
2009-06-25 07:41:34 51°17.756 2°52.464 21.8037 0.063304 0.336449 5.929418
2009-06-25 07:41:39 51°17.77 2°52.465 21.8056 0.065156 0.346568 5.894594
2009-06-25 07:41:44 51°17.784 2°52.467 21.817 0.061246 0.325115 5.894594
2009-06-25 07:41:49 51°17.799 2°52.468 21.8187 0.061246 0.325115 5.894594
2009-06-25 07:41:54 51°17.813 2°52.469 21.8067 0.063407 0.336857 5.894594
2009-06-25 07:41:59 51°17.827 2°52.471 21.8057 0.059805 0.31719 5.929418
2009-06-25 07:42:04 51°17.841 2°52.473 21.8196 0.062995 0.334612 5.894594
2009-06-25 07:42:09 51°17.855 2°52.476 21.819 0.059599 0.316063 5.894594
2009-06-25 07:42:13 51°17.866 2°52.478 21.8228 0.060937 0.32337 5.894594
2009-06-25 07:42:19 51°17.883 2°52.482 21.8201 0.060937 0.32337 5.894594
2009-06-25 07:42:24 51°17.897 2°52.485 21.81 0.061863 0.328487 5.894594
2009-06-25 07:42:29 51°17.911 2°52.488 21.8297 0.061451 0.326317 5.894594
2009-06-25 07:42:33 51°17.923 2°52.491 21.8209 0.062789 0.333748 5.894594
2009-06-25 07:42:39 51°17.94 2°52.494 21.8291 0.061349 0.32591 5.894594
2009-06-25 07:42:44 51°17.954 2°52.498 21.8272 0.061349 0.32591 5.894594
2009-06-25 07:42:49 51°17.968 2°52.501 21.8265 0.06104 0.324212 5.894594
2009-06-25 07:42:54 51°17.982 2°52.505 21.8118 0.057232 0.303453 5.894594
2009-06-25 07:42:59 51°17.996 2°52.508 21.8235 0.065053 0.346187 5.894594
2009-06-25 07:43:04 51°18.009 2°52.515 21.8032 0.059084 0.313514 5.894594
2009-06-25 07:43:09 51°18.023 2°52.52 21.8149 0.060834 0.323044 5.894594
2009-06-25 07:43:14 51°18.036 2°52.528 21.8087 0.060834 0.323044 5.894594
2009-06-25 07:43:19 51°18.049 2°52.535 21.8176 0.062172 0.330376 5.894594
2009-06-25 07:43:24 51°18.062 2°52.543 21.8223 0.060628 0.321942 5.894594
2009-06-25 07:43:29 51°18.075 2°52.55 21.8305 0.062789 0.33377 5.894594
2009-06-25 07:43:34 51°18.088 2°52.559 21.8296 0.062069 0.329858 5.894594
2009-06-25 07:43:39 51°18.101 2°52.568 21.8218 0.066597 0.354727 5.894594
2009-06-25 07:43:44 51°18.113 2°52.577 21.8213 0.065156 0.346839 5.929418
2009-06-25 07:43:49 51°18.126 2°52.586 21.8232 0.065156 0.346839 5.929418
2009-06-25 07:43:54 51°18.139 2°52.596 21.8254 0.06104 0.324284 5.894594
2009-06-25 07:43:59 51°18.151 2°52.606 21.82 0.061966 0.329369 5.894594
2009-06-25 07:44:05 51°18.165 2°52.621 21.8178 0.060319 0.320343 5.929418
2009-06-25 07:44:09 51°18.174 2°52.63 21.8213 0.060114 0.319225 5.894594
2009-06-25 07:44:13 51°18.182 2°52.642 21.8079 0.060114 0.319225 5.894594
2009-06-25 07:44:19 51°18.194 2°52.658 21.8145 0.062686 0.333304 5.894594
2009-06-25 07:44:24 51°18.204 2°52.673 21.8334 0.060319 0.320403 5.894594
2009-06-25 07:44:29 51°18.213 2°52.688 21.816 0.062892 0.334487 5.894594
2009-06-25 07:44:33 51°18.22 2°52.701 21.8168 0.06917 0.368886 5.894594
2009-06-25 07:44:39 51°18.23 2°52.721 21.8433 0.066597 0.354781 5.929418
2009-06-25 07:44:44 51°18.238 2°52.738 21.8401 0.066597 0.354781 5.929418
2009-06-25 07:44:49 51°18.246 2°52.755 21.8275 0.07061 0.376779 5.894594
2009-06-25 07:44:53 51°18.252 2°52.769 21.8341 0.060731 0.322476 5.894594
2009-06-25 07:44:59 51°18.261 2°52.79 21.8445 0.07164 0.382331 5.894594
2009-06-25 07:45:04 51°18.268 2°52.808 21.832 0.062069 0.329802 5.894594
2009-06-25 07:45:09 51°18.276 2°52.826 21.8412 0.063407 0.337052 5.894594
2009-06-25 07:45:14 51°18.283 2°52.844 21.831 0.065774 0.349964 5.894594
2009-06-25 07:45:19 51°18.29 2°52.862 21.8446 0.065774 0.349964 5.894594
2009-06-25 07:45:24 51°18.297 2°52.881 21.8318 0.062686 0.333054 5.894594
2009-06-25 07:45:29 51°18.304 2°52.899 21.8325 0.060937 0.323518 5.894594
2009-06-25 07:45:34 51°18.311 2°52.918 21.8242 0.060011 0.318506 5.85977
2009-06-25 07:45:39 51°18.318 2°52.936 21.8407 0.062481 0.332036 5.894594
2009-06-25 07:45:44 51°18.324 2°52.956 21.8397 0.057747 0.306245 5.894594
2009-06-25 07:45:49 51°18.328 2°52.976 21.8477 0.057747 0.306245 5.894594
2009-06-25 07:45:54 51°18.333 2°52.996 21.8407 0.065465 0.348467 5.894594
2009-06-25 07:45:59 51°18.337 2°53.016 21.8434 0.064127 0.341169 5.894594
2009-06-25 07:46:04 51°18.34 2°53.037 21.8492 0.063921 0.340094 5.894594
2009-06-25 07:46:09 51°18.343 2°53.058 21.8362 0.064024 0.340664 5.894594
2009-06-25 07:46:14 51°18.346 2°53.079 21.8392 0.064333 0.342344 5.894594
2009-06-25 07:46:19 51°18.348 2°53.1 21.8483 0.064333 0.342344 5.894594
2009-06-25 07:46:25 51°18.35 2°53.126 21.8517 0.059393 0.315331 5.894594
2009-06-25 07:46:29 51°18.352 2°53.143 21.8453 0.063304 0.336683 5.894594
2009-06-25 07:46:33 51°18.353 2°53.16 21.8453 0.061966 0.329341 5.894594
2009-06-25 07:46:39 51°18.355 2°53.186 21.8523 0.061554 0.327068 5.894594
2009-06-25 07:46:44 51°18.356 2°53.208 21.8515 0.061554 0.327068 5.894594
2009-06-25 07:46:49 51°18.358 2°53.23 21.8576 0.059393 0.315267 5.85977
2009-06-25 07:46:53 51°18.359 2°53.247 21.8526 0.062172 0.330449 5.894594
2009-06-25 07:46:59 51°18.361 2°53.273 21.8553 0.059908 0.318085 5.894594
2009-06-25 07:47:04 51°18.363 2°53.294 21.8681 0.059805 0.317545 5.85977
2009-06-25 07:47:09 51°18.363 2°53.316 21.8526 0.064539 0.343437 5.85977
2009-06-25 07:47:13 51°18.366 2°53.333 21.865 0.056615 0.300149 5.85977
2009-06-25 07:47:19 51°18.368 2°53.359 21.8473 0.056615 0.300149 5.85977
2009-06-25 07:47:24 51°18.371 2°53.38 21.8629 0.062378 0.331626 5.85977
2009-06-25 07:47:29 51°18.373 2°53.401 21.858 0.061657 0.32768 5.85977
2009-06-25 07:47:34 51°18.376 2°53.423 21.8589 0.061554 0.327112 5.85977
2009-06-25 07:47:39 51°18.379 2°53.444 21.8672 0.062172 0.330477 5.85977
2009-06-25 07:47:44 51°18.383 2°53.465 21.875 0.061451 0.326566 5.85977
2009-06-25 07:47:49 51°18.385 2°53.486 21.8753 0.061451 0.326566 5.85977
2009-06-25 07:47:54 51°18.389 2°53.507 21.8702 0.058673 0.311397 5.85977
2009-06-25 07:47:59 51°18.393 2°53.527 21.8705 0.061863 0.328811 5.85977
2009-06-25 07:48:04 51°18.396 2°53.548 21.8648 0.062172 0.330511 5.85977
2009-06-25 07:48:09 51°18.4 2°53.569 21.8802 0.063921 0.3401 5.85977
2009-06-25 07:48:14 51°18.403 2°53.59 21.874 0.063921 0.3401 5.85977
2009-06-25 07:48:19 51°18.407 2°53.61 21.8734 0.062789 0.333912 5.85977
2009-06-25 07:48:24 51°18.411 2°53.631 21.8796 0.05857 0.310841 5.85977
2009-06-25 07:48:29 51°18.415 2°53.652 21.8821 0.062995 0.33501 5.85977
2009-06-25 07:48:34 51°18.419 2°53.673 21.8673 0.062583 0.332758 5.85977
2009-06-25 07:48:39 51°18.423 2°53.693 21.8841 0.060422 0.320938 5.85977
2009-06-25 07:48:44 51°18.426 2°53.714 21.8853 0.060422 0.320938 5.85977
2009-06-25 07:48:49 51°18.431 2°53.735 21.8877 0.061349 0.325971 5.824946
2009-06-25 07:48:53 51°18.434 2°53.751 21.8822 0.061657 0.327636 5.85977
2009-06-25 07:48:59 51°18.439 2°53.776 21.8781 0.058776 0.311894 5.85977
2009-06-25 07:49:04 51°18.444 2°53.796 21.8835 0.06104 0.324256 5.824946
2009-06-25 07:49:09 51°18.447 2°53.817 21.8889 0.060628 0.322007 5.85977
2009-06-25 07:49:13 51°18.451 2°53.833 21.8917 0.060628 0.322013 5.824946
2009-06-25 07:49:19 51°18.456 2°53.858 21.8881 0.060628 0.322013 5.824946
2009-06-25 07:49:24 51°18.46 2°53.879 21.8936 0.059084 0.313594 5.824946
2009-06-25 07:49:29 51°18.464 2°53.899 21.8888 0.062378 0.331581 5.85977
2009-06-25 07:49:34 51°18.468 2°53.92 21.8882 0.057541 0.305191 5.824946
2009-06-25 07:49:39 51°18.473 2°53.94 21.8914 0.059599 0.316422 5.85977
2009-06-25 07:49:44 51°18.477 2°53.961 21.8776 0.061349 0.325987 5.85977
2009-06-25 07:49:49 51°18.481 2°53.981 21.8867 0.061349 0.325987 5.85977
2009-06-25 07:49:54 51°18.485 2°54.002 21.8928 0.057541 0.305212 5.824946
2009-06-25 07:49:59 51°18.49 2°54.022 21.8928 0.058673 0.311386 5.824946
2009-06-25 07:50:04 51°18.494 2°54.042 21.8841 0.061246 0.325436 5.85977
2009-06-25 07:50:09 51°18.498 2°54.063 21.9001 0.060731 0.32263 5.824946
2009-06-25 07:50:14 51°18.502 2°54.083 21.9005 0.060731 0.32263 5.824946
2009-06-25 07:50:19 51°18.507 2°54.103 21.8989 0.060731 0.32263 5.824946
2009-06-25 07:50:24 51°18.512 2°54.123 21.9035 0.059496 0.315893 5.824946
2009-06-25 07:50:29 51°18.516 2°54.144 21.902 0.059805 0.317583 5.824946
2009-06-25 07:50:34 51°18.521 2°54.164 21.9061 0.058467 0.31028 5.824946
2009-06-25 07:50:39 51°18.525 2°54.184 21.8934 0.062583 0.332775 5.824946
2009-06-25 07:50:44 51°18.529 2°54.204 21.8878 0.063201 0.336154 5.824946
2009-06-25 07:50:49 51°18.534 2°54.224 21.8881 0.063201 0.336154 5.824946
2009-06-25 07:50:54 51°18.538 2°54.245 21.8859 0.05785 0.30692 5.824946
2009-06-25 07:50:59 51°18.543 2°54.265 21.9004 0.061657 0.327686 5.824946
2009-06-25 07:51:05 51°18.548 2°54.289 21.9107 0.064539 0.343454 5.824946
2009-06-25 07:51:09 51°18.552 2°54.305 21.9086 0.057232 0.303531 5.824946
2009-06-25 07:51:13 51°18.555 2°54.322 21.8939 0.059496 0.315866 5.824946
2009-06-25 07:51:19 51°18.56 2°54.346 21.9196 0.059496 0.315866 5.824946
2009-06-25 07:51:24 51°18.564 2°54.366 21.9153 0.066082 0.351903 5.824946
2009-06-25 07:51:29 51°18.569 2°54.386 21.9162 0.060422 0.320927 5.824946
2009-06-25 07:51:34 51°18.573 2°54.407 21.8972 0.061246 0.325403 5.824946
2009-06-25 07:51:39 51°18.578 2°54.427 21.9124 0.062275 0.331012 5.824946
2009-06-25 07:51:44 51°18.582 2°54.447 21.9062 0.062275 0.331012 5.824946
2009-06-25 07:51:49 51°18.586 2°54.468 21.9019 0.058982 0.313027 5.824946
2009-06-25 07:51:54 51°18.591 2°54.488 21.9229 0.058055 0.307984 5.824946
2009-06-25 07:51:59 51°18.596 2°54.508 21.9178 0.05929 0.314706 5.824946
2009-06-25 07:52:04 51°18.6 2°54.528 21.9214 0.060731 0.322548 5.824946
2009-06-25 07:52:09 51°18.604 2°54.548 21.9109 0.062275 0.330967 5.790122
2009-06-25 07:52:14 51°18.609 2°54.569 21.9058 0.062275 0.330967 5.790122
2009-06-25 07:52:19 51°18.613 2°54.589 21.9291 0.060011 0.31856 5.824946
2009-06-25 07:52:24 51°18.617 2°54.61 21.9199 0.060319 0.320251 5.790122
2009-06-25 07:52:29 51°18.622 2°54.63 21.9211 0.058364 0.309593 5.824946
2009-06-25 07:52:34 51°18.626 2°54.65 21.9234 0.058055 0.3079 5.824946
2009-06-25 07:52:39 51°18.631 2°54.67 21.9163 0.060525 0.321364 5.790122
2009-06-25 07:52:44 51°18.635 2°54.691 21.905 0.057232 0.303402 5.824946
2009-06-25 07:52:49 51°18.639 2°54.711 21.9231 0.057232 0.303402 5.824946
2009-06-25 07:52:54 51°18.644 2°54.732 21.9375 0.064024 0.340478 5.824946
2009-06-25 07:52:59 51°18.647 2°54.753 21.9174 0.060011 0.318544 5.824946
2009-06-25 07:53:05 51°18.653 2°54.777 21.9255 0.063098 0.335414 5.790122
2009-06-25 07:53:09 51°18.656 2°54.793 21.9232 0.065774 0.350083 5.824946
2009-06-25 07:53:13 51°18.66 2°54.809 21.9369 0.065774 0.350083 5.824946
2009-06-25 07:53:19 51°18.666 2°54.834 21.9261 0.060525 0.321347 5.790122
2009-06-25 07:53:24 51°18.671 2°54.853 21.9362 0.062686 0.333168 5.790122
2009-06-25 07:53:29 51°18.676 2°54.874 21.9387 0.063613 0.338242 5.790122
2009-06-25 07:53:34 51°18.682 2°54.893 21.938 0.061246 0.325287 5.790122
2009-06-25 07:53:39 51°18.687 2°54.913 21.9359 0.064333 0.342186 5.790122
2009-06-25 07:53:44 51°18.693 2°54.933 21.9295 0.064333 0.342186 5.790122
2009-06-25 07:53:49 51°18.698 2°54.952 21.9297 0.065671 0.349537 5.790122
2009-06-25 07:53:53 51°18.702 2°54.968 21.9257 0.064024 0.340513 5.790122
2009-06-25 07:53:59 51°18.71 2°54.991 21.9294 0.066906 0.356301 5.790122
2009-06-25 07:54:04 51°18.715 2°55.011 21.9401 0.061143 0.324724 5.790122
2009-06-25 07:54:09 51°18.721 2°55.03 21.9411 0.066185 0.352329 5.790122
2009-06-25 07:54:14 51°18.728 2°55.049 21.936 0.061863 0.328655 5.790122
2009-06-25 07:54:19 51°18.733 2°55.069 21.9336 0.061863 0.328655 5.790122
2009-06-25 07:54:24 51°18.739 2°55.088 21.9401 0.06176 0.328081 5.790122
2009-06-25 07:54:29 51°18.745 2°55.108 21.9476 0.065053 0.34611 5.790122
2009-06-25 07:54:34 51°18.751 2°55.127 21.9478 0.061863 0.328655 5.790122
2009-06-25 07:54:39 51°18.757 2°55.147 21.9327 0.063715 0.338805 5.790122
2009-06-25 07:54:44 51°18.762 2°55.167 21.9518 0.063098 0.335431 5.790122
2009-06-25 07:54:49 51°18.768 2°55.186 21.955 0.063098 0.335431 5.790122
2009-06-25 07:54:53 51°18.773 2°55.202 21.9568 0.064745 0.344453 5.790122
2009-06-25 07:54:59 51°18.78 2°55.225 21.9545 0.06104 0.324184 5.790122
2009-06-25 07:55:04 51°18.786 2°55.245 21.9389 0.062069 0.329814 5.790122
2009-06-25 07:55:09 51°18.792 2°55.264 21.9412 0.064127 0.341105 5.790122
2009-06-25 07:55:14 51°18.798 2°55.283 21.9388 0.064127 0.341105 5.790122
2009-06-25 07:55:19 51°18.804 2°55.303 21.95 0.061451 0.326455 5.755298
2009-06-25 07:55:24 51°18.81 2°55.322 21.9422 0.062275 0.330945 5.790122
2009-06-25 07:55:29 51°18.816 2°55.341 21.9585 0.060937 0.323617 5.755298
2009-06-25 07:55:34 51°18.822 2°55.36 21.9582 0.065774 0.350089 5.790122
2009-06-25 07:55:39 51°18.828 2°55.38 21.9609 0.061657 0.327541 5.755298
2009-06-25 07:55:44 51°18.834 2°55.399 21.9637 0.062892 0.334282 5.755298
2009-06-25 07:55:49 51°18.841 2°55.418 21.9662 0.062892 0.334282 5.755298
2009-06-25 07:55:54 51°18.847 2°55.437 21.9649 0.062069 0.329774 5.755298
2009-06-25 07:55:59 51°18.853 2°55.456 21.9679 0.062892 0.334259 5.755298
2009-06-25 07:56:04 51°18.859 2°55.475 21.9597 0.06176 0.32807 5.755298
2009-06-25 07:56:09 51°18.865 2°55.493 21.9521 0.062583 0.332576 5.755298
2009-06-25 07:56:14 51°18.871 2°55.512 21.9706 0.060937 0.323584 5.755298
2009-06-25 07:56:19 51°18.877 2°55.532 21.9704 0.060937 0.323584 5.755298
2009-06-25 07:56:24 51°18.883 2°55.551 21.9765 0.064847 0.345011 5.755298
2009-06-25 07:56:29 51°18.889 2°55.57 21.9531 0.06351 0.337707 5.755298
2009-06-25 07:56:34 51°18.895 2°55.589 21.9654 0.063715 0.338834 5.755298
2009-06-25 07:56:39 51°18.901 2°55.608 21.9758 0.05857 0.310704 5.755298
2009-06-25 07:56:44 51°18.907 2°55.627 21.9701 0.065465 0.348384 5.790122
2009-06-25 07:56:49 51°18.913 2°55.646 21.9756 0.065465 0.348384 5.790122
2009-06-25 07:56:54 51°18.919 2°55.666 21.9713 0.061349 0.325849 5.755298
2009-06-25 07:56:59 51°18.925 2°55.684 21.9781 0.060731 0.322471 5.755298
2009-06-25 07:57:04 51°18.93 2°55.704 21.9764 0.060937 0.323584 5.755298
2009-06-25 07:57:09 51°18.937 2°55.723 21.9814 0.06104 0.324146 5.755298
2009-06-25 07:57:14 51°18.942 2°55.743 21.9754 0.06104 0.324146 5.755298
2009-06-25 07:57:19 51°18.948 2°55.762 21.9726 0.064333 0.342163 5.755298
2009-06-25 07:57:24 51°18.953 2°55.782 21.9817 0.062275 0.330916 5.755298
2009-06-25 07:57:29 51°18.959 2°55.801 21.9805 0.06351 0.33769 5.755298
2009-06-25 07:57:34 51°18.964 2°55.821 21.9783 0.061863 0.328694 5.720474
2009-06-25 07:57:39 51°18.97 2°55.84 21.973 0.062481 0.33207 5.755298
2009-06-25 07:57:44 51°18.976 2°55.86 21.9815 0.062892 0.334345 5.720474
2009-06-25 07:57:49 51°18.981 2°55.879 21.9763 0.062892 0.334345 5.720474
2009-06-25 07:57:53 51°18.986 2°55.895 21.9836 0.061143 0.324791 5.720474
2009-06-25 07:57:59 51°18.992 2°55.918 21.9866 0.060628 0.321975 5.720474
2009-06-25 07:58:04 51°18.998 2°55.938 21.9787 0.060011 0.318598 5.755298
2009-06-25 07:58:09 51°19.004 2°55.957 21.9927 0.062275 0.330961 5.755298
2009-06-25 07:58:14 51°19.009 2°55.977 21.9933 0.062995 0.334908 5.720474
2009-06-25 07:58:19 51°19.015 2°55.996 21.9857 0.062995 0.334908 5.720474
2009-06-25 07:58:24 51°19.021 2°56.016 21.9889 0.062789 0.333787 5.720474
2009-06-25 07:58:29 51°19.026 2°56.035 21.9909 0.061966 0.329279 5.720474
2009-06-25 07:58:34 51°19.032 2°56.055 21.993 0.060217 0.319711 5.755298
2009-06-25 07:58:39 51°19.038 2°56.074 21.9998 0.060114 0.319138 5.720474
2009-06-25 07:58:44 51°19.043 2°56.094 21.9943 0.060114 0.319138 5.720474
2009-06-25 07:58:49 51°19.049 2°56.114 21.9911 0.063818 0.339409 5.720474
2009-06-25 07:58:54 51°19.054 2°56.133 21.995 0.062378 0.33153 5.720474
2009-06-25 07:58:59 51°19.06 2°56.153 21.992 0.061349 0.325915 5.720474
2009-06-25 07:59:04 51°19.066 2°56.172 21.9873 0.058673 0.311317 5.720474
2009-06-25 07:59:09 51°19.072 2°56.191 21.9823 0.061349 0.325921 5.720474
2009-06-25 07:59:14 51°19.078 2°56.211 21.988 0.061349 0.325921 5.720474
2009-06-25 07:59:19 51°19.084 2°56.23 21.9862 0.06104 0.324245 5.720474
2009-06-25 07:59:24 51°19.09 2°56.249 21.9852 0.058158 0.308524 5.720474
2009-06-25 07:59:29 51°19.095 2°56.269 22.0096 0.065362 0.347909 5.720474
2009-06-25 07:59:34 51°19.101 2°56.289 22.0054 0.060011 0.318658 5.720474
2009-06-25 07:59:39 51°19.107 2°56.308 22.0019 0.060731 0.322597 5.720474
2009-06-25 07:59:44 51°19.112 2°56.327 21.9976 0.061143 0.324846 5.720474
2009-06-25 07:59:49 51°19.118 2°56.347 22.01 0.061143 0.324846 5.720474
2009-06-25 07:59:53 51°19.123 2°56.363 22.0125 0.063715 0.338909 5.720474
2009-06-25 07:59:59 51°19.129 2°56.386 22.0045 0.06176 0.328193 5.720474
2009-06-25 08:00:05 51°19.136 2°56.41 22.0004 0.060731 0.322553 5.68565
2009-06-25 08:00:09 51°19.141 2°56.425 22.0097 0.059805 0.317491 5.720474
2009-06-25 08:00:13 51°19.145 2°56.441 22.0088 0.063201 0.336051 5.68565
2009-06-25 08:00:19 51°19.152 2°56.465 22.001 0.063201 0.336051 5.68565
2009-06-25 08:00:24 51°19.157 2°56.484 22.0112 0.062069 0.32987 5.720474
2009-06-25 08:00:29 51°19.163 2°56.504 21.9974 0.059187 0.314134 5.68565
2009-06-25 08:00:34 51°19.169 2°56.523 21.9973 0.06104 0.324234 5.68565
2009-06-25 08:00:39 51°19.175 2°56.543 22.0034 0.061863 0.328722 5.68565
2009-06-25 08:00:44 51°19.181 2°56.562 21.9968 0.061863 0.328722 5.68565
2009-06-25 08:00:49 51°19.186 2°56.582 21.9973 0.06351 0.337724 5.720474
2009-06-25 08:00:54 51°19.192 2°56.602 22.0011 0.060834 0.323093 5.68565
2009-06-25 08:00:59 51°19.197 2°56.622 22.0171 0.063407 0.337138 5.68565
2009-06-25 08:01:04 51°19.203 2°56.641 22.0233 0.061143 0.324741 5.68565
2009-06-25 08:01:09 51°19.209 2°56.661 22.0175 0.062789 0.333731 5.68565
2009-06-25 08:01:13 51°19.213 2°56.676 22.0073 0.06351 0.337667 5.68565
2009-06-25 08:01:19 51°19.22 2°56.7 22.015 0.06351 0.337667 5.68565
2009-06-25 08:01:24 51°19.225 2°56.72 22.0271 0.061863 0.328666 5.68565
2009-06-25 08:01:29 51°19.231 2°56.74 22.0223 0.061451 0.326422 5.68565
2009-06-25 08:01:34 51°19.236 2°56.759 22.0194 0.06351 0.337695 5.68565
2009-06-25 08:01:39 51°19.242 2°56.779 22.0036 0.064127 0.341082 5.68565
2009-06-25 08:01:44 51°19.248 2°56.798 22.0103 0.05929 0.314636 5.68565
2009-06-25 08:01:49 51°19.253 2°56.818 22.0084 0.05929 0.314636 5.68565
2009-06-25 08:01:53 51°19.258 2°56.834 22.0214 0.062069 0.329819 5.68565
2009-06-25 08:01:59 51°19.264 2°56.858 22.0225 0.062789 0.333748 5.68565
2009-06-25 08:02:04 51°19.27 2°56.877 22.0386 0.06176 0.328109 5.68565
2009-06-25 08:02:09 51°19.275 2°56.897 22.04 0.063921 0.339914 5.68565
2009-06-25 08:02:14 51°19.281 2°56.917 22.0437 0.063921 0.339914 5.68565
2009-06-25 08:02:19 51°19.287 2°56.936 22.0386 0.068346 0.364208 5.650826
2009-06-25 08:02:24 51°19.292 2°56.955 22.0213 0.070919 0.378395 5.68565
2009-06-25 08:02:29 51°19.298 2°56.975 22.0349 0.068449 0.364792 5.68565
2009-06-25 08:02:34 51°19.304 2°56.994 22.0299 0.065259 0.347262 5.68565
2009-06-25 08:02:39 51°19.309 2°57.014 22.0232 0.067729 0.360822 5.650826
2009-06-25 08:02:44 51°19.315 2°57.033 22.0369 0.067729 0.360822 5.650826
2009-06-25 08:02:49 51°19.32 2°57.052 22.0434 0.067009 0.356853 5.650826
2009-06-25 08:02:54 51°19.326 2°57.072 22.0423 0.066288 0.3529 5.650826
2009-06-25 08:02:59 51°19.331 2°57.091 22.0303 0.070713 0.377223 5.68565
2009-06-25 08:03:04 51°19.336 2°57.11 22.0415 0.066494 0.354029 5.650826
2009-06-25 08:03:09 51°19.342 2°57.129 22.0333 0.06917 0.368722 5.650826
2009-06-25 08:03:14 51°19.348 2°57.149 22.0345 0.064642 0.343848 5.650826
2009-06-25 08:03:19 51°19.353 2°57.168 22.0379 0.064642 0.343848 5.650826
2009-06-25 08:03:24 51°19.359 2°57.188 22.0439 0.068346 0.364165 5.650826
2009-06-25 08:03:29 51°19.364 2°57.207 22.0363 0.065671 0.349477 5.650826
2009-06-25 08:03:34 51°19.37 2°57.227 22.0508 0.069993 0.373245 5.650826
2009-06-25 08:03:39 51°19.375 2°57.246 22.0394 0.0667 0.355177 5.650826
2009-06-25 08:03:44 51°19.381 2°57.266 22.049 0.067935 0.361971 5.650826
2009-06-25 08:03:49 51°19.387 2°57.285 22.0496 0.067935 0.361971 5.650826
2009-06-25 08:03:53 51°19.391 2°57.301 22.0495 0.064745 0.344477 5.650826
2009-06-25 08:03:59 51°19.398 2°57.324 22.048 0.064847 0.345029 5.650826
2009-06-25 08:04:05 51°19.405 2°57.347 22.0426 0.066597 0.354618 5.650826
2009-06-25 08:04:09 51°19.409 2°57.363 22.0453 0.061349 0.325871 5.650826
2009-06-25 08:04:13 51°19.414 2°57.378 22.0561 0.061349 0.325871 5.650826
2009-06-25 08:04:19 51°19.421 2°57.401 22.0504 0.064539 0.34332 5.650826
2009-06-25 08:04:24 51°19.427 2°57.42 22.0592 0.065053 0.346151 5.650826
2009-06-25 08:04:29 51°19.433 2°57.44 22.0444 0.072463 0.386929 5.650826
2009-06-25 08:04:34 51°19.438 2°57.459 22.0515 0.071125 0.379581 5.650826
2009-06-25 08:04:39 51°19.444 2°57.478 22.0634 0.07308 0.390322 5.650826
2009-06-25 08:04:44 51°19.449 2°57.498 22.0595 0.07308 0.390322 5.650826
2009-06-25 08:04:49 51°19.455 2°57.517 22.0491 0.068552 0.365377 5.650826
2009-06-25 08:04:54 51°19.461 2°57.536 22.0509 0.071228 0.380063 5.650826
2009-06-25 08:04:59 51°19.466 2°57.556 22.0472 0.068758 0.366458 5.616002
2009-06-25 08:05:04 51°19.472 2°57.575 22.0497 0.067317 0.358524 5.616002
2009-06-25 08:05:09 51°19.478 2°57.594 22.0542 0.066906 0.356264 5.616002
2009-06-25 08:05:14 51°19.484 2°57.614 22.0624 0.066597 0.354576 5.616002
2009-06-25 08:05:19 51°19.49 2°57.633 22.0526 0.066597 0.354576 5.616002
2009-06-25 08:05:24 51°19.496 2°57.652 22.0505 0.065774 0.350059 5.616002
2009-06-25 08:05:29 51°19.502 2°57.671 22.0526 0.066288 0.352894 5.616002
2009-06-25 08:05:34 51°19.508 2°57.69 22.0692 0.065465 0.348396 5.616002
2009-06-25 08:05:39 51°19.514 2°57.709 22.0543 0.065877 0.350653 5.616002
2009-06-25 08:05:44 51°19.52 2°57.728 22.0599 0.064847 0.345029 5.616002
2009-06-25 08:05:49 51°19.526 2°57.747 22.0593 0.064847 0.345029 5.616002
2009-06-25 08:05:54 51°19.532 2°57.766 22.0608 0.066494 0.354077 5.616002
2009-06-25 08:05:59 51°19.537 2°57.785 22.0653 0.0667 0.355225 5.616002
2009-06-25 08:06:04 51°19.543 2°57.804 22.0627 0.066597 0.354672 5.616002
2009-06-25 08:06:09 51°19.549 2°57.824 22.0534 0.065671 0.349578 5.616002
2009-06-25 08:06:13 51°19.553 2°57.839 22.0716 0.065671 0.349578 5.616002
2009-06-25 08:06:19 51°19.56 2°57.862 22.074 0.067832 0.361449 5.616002
2009-06-25 08:06:25 51°19.567 2°57.886 22.0747 0.067729 0.360896 5.616002
2009-06-25 08:06:29 51°19.571 2°57.901 22.0752 0.065465 0.348473 5.616002
2009-06-25 08:06:34 51°19.577 2°57.92 22.0728 0.063201 0.336063 5.616002
2009-06-25 08:06:39 51°19.582 2°57.939 22.0743 0.065568 0.34902 5.616002
2009-06-25 08:06:44 51°19.588 2°57.959 22.0745 0.067009 0.35692 5.616002
2009-06-25 08:06:49 51°19.594 2°57.977 22.0676 0.067009 0.35692 5.616002
2009-06-25 08:06:53 51°19.599 2°57.993 22.0749 0.063201 0.336034 5.581178
2009-06-25 08:06:59 51°19.606 2°58.015 22.0737 0.065156 0.346733 5.616002
2009-06-25 08:07:04 51°19.612 2°58.034 22.0735 0.064333 0.342227 5.581178
2009-06-25 08:07:09 51°19.618 2°58.053 22.0787 0.068655 0.365943 5.616002
2009-06-25 08:07:14 51°19.624 2°58.072 22.0801 0.067832 0.361473 5.581178
2009-06-25 08:07:19 51°19.63 2°58.091 22.0541 0.067832 0.361473 5.581178
2009-06-25 08:07:24 51°19.636 2°58.109 22.0771 0.065259 0.347339 5.616002
2009-06-25 08:07:29 51°19.641 2°58.128 22.0888 0.067111 0.357516 5.581178
2009-06-25 08:07:34 51°19.647 2°58.147 22.0733 0.066391 0.353561 5.581178
2009-06-25 08:07:39 51°19.653 2°58.166 22.0847 0.072669 0.388117 5.581178
2009-06-25 08:07:44 51°19.659 2°58.185 22.0963 0.070302 0.375098 5.581178
2009-06-25 08:07:49 51°19.665 2°58.204 22.0878 0.070302 0.375098 5.581178
2009-06-25 08:07:54 51°19.67 2°58.223 22.0835 0.06742 0.359236 5.581178
2009-06-25 08:07:59 51°19.676 2°58.242 22.08 0.067729 0.360914 5.581178
2009-06-25 08:08:04 51°19.682 2°58.261 22.0878 0.068244 0.363717 5.581178
2009-06-25 08:08:09 51°19.688 2°58.28 22.0898 0.06351 0.337707 5.581178
2009-06-25 08:08:14 51°19.693 2°58.299 22.0794 0.064127 0.341053 5.581178
2009-06-25 08:08:19 51°19.699 2°58.318 22.0933 0.064127 0.341053 5.581178
2009-06-25 08:08:24 51°19.704 2°58.337 22.0848 0.069993 0.373238 5.581178
2009-06-25 08:08:29 51°19.71 2°58.357 22.0737 0.061966 0.329184 5.581178
2009-06-25 08:08:33 51°19.715 2°58.372 22.093 0.067317 0.358499 5.581178
2009-06-25 08:08:39 51°19.722 2°58.395 22.0963 0.066494 0.353987 5.581178
2009-06-25 08:08:45 51°19.728 2°58.418 22.0996 0.066906 0.356264 5.581178
2009-06-25 08:08:49 51°19.733 2°58.433 22.0953 0.066906 0.356264 5.581178
2009-06-25 08:08:53 51°19.738 2°58.448 22.0992 0.064539 0.343343 5.581178
2009-06-25 08:08:59 51°19.744 2°58.471 22.1048 0.064539 0.343419 5.581178
2009-06-25 08:09:04 51°19.75 2°58.491 22.1023 0.061863 0.328845 5.581178
2009-06-25 08:09:09 51°19.755 2°58.51 22.0979 0.067626 0.360502 5.581178
2009-06-25 08:09:13 51°19.76 2°58.525 22.1019 0.062995 0.33509 5.581178
2009-06-25 08:09:19 51°19.767 2°58.548 22.1077 0.062995 0.33509 5.581178
2009-06-25 08:09:24 51°19.772 2°58.568 22.1007 0.06989 0.372889 5.546354
2009-06-25 08:09:29 51°19.777 2°58.587 22.1014 0.0667 0.35531 5.546354
2009-06-25 08:09:34 51°19.783 2°58.606 22.1145 0.06351 0.337793 5.546354
2009-06-25 08:09:39 51°19.789 2°58.626 22.1001 0.068141 0.36322 5.546354
2009-06-25 08:09:44 51°19.794 2°58.645 22.0942 0.068141 0.36322 5.546354
2009-06-25 08:09:49 51°19.8 2°58.664 22.1197 0.071331 0.380767 5.546354
2009-06-25 08:09:54 51°19.805 2°58.684 22.1128 0.070713 0.377339 5.546354
2009-06-25 08:09:59 51°19.81 2°58.703 22.0927 0.06917 0.368772 5.546354
2009-06-25 08:10:04 51°19.816 2°58.722 22.1107 0.069787 0.37215 5.546354
2009-06-25 08:10:09 51°19.821 2°58.742 22.1044 0.072154 0.385167 5.546354
2009-06-25 08:10:14 51°19.827 2°58.761 22.1215 0.067214 0.357947 5.546354
2009-06-25 08:10:19 51°19.832 2°58.781 22.1153 0.067214 0.357947 5.546354
2009-06-25 08:10:24 51°19.838 2°58.8 22.125 0.069478 0.37035 5.546354
2009-06-25 08:10:29 51°19.843 2°58.819 22.1037 0.070816 0.377725 5.546354
2009-06-25 08:10:34 51°19.849 2°58.838 22.1081 0.068346 0.364165 5.546354
2009-06-25 08:10:39 51°19.854 2°58.857 22.097 0.066288 0.352809 5.546354
2009-06-25 08:10:44 51°19.86 2°58.877 22.1237 0.070302 0.374873 5.546354
2009-06-25 08:10:49 51°19.866 2°58.896 22.1259 0.070302 0.374873 5.546354
2009-06-25 08:10:54 51°19.871 2°58.916 22.1199 0.072257 0.385754 5.51153
2009-06-25 08:10:59 51°19.877 2°58.934 22.1246 0.074933 0.400583 5.546354
2009-06-25 08:11:04 51°19.882 2°58.954 22.1174 0.070302 0.375059 5.546354
2009-06-25 08:11:09 51°19.888 2°58.973 22.1272 0.073389 0.392099 5.546354
2009-06-25 08:11:14 51°19.893 2°58.993 22.1265 0.07555 0.404058 5.546354
2009-06-25 08:11:19 51°19.899 2°59.012 22.1271 0.07555 0.404058 5.546354
2009-06-25 08:11:24 51°19.904 2°59.031 22.1123 0.07483 0.400056 5.546354
2009-06-25 08:11:29 51°19.91 2°59.05 22.1183 0.072566 0.387536 5.51153
2009-06-25 08:11:34 51°19.915 2°59.069 22.1301 0.070405 0.3756 5.546354
2009-06-25 08:11:39 51°19.921 2°59.088 22.1187 0.074109 0.396008 5.51153
2009-06-25 08:11:44 51°19.926 2°59.108 22.109 0.074109 0.396008 5.51153
2009-06-25 08:11:49 51°19.931 2°59.127 22.1231 0.070096 0.373868 5.51153
2009-06-25 08:11:54 51°19.937 2°59.147 22.1095 0.071022 0.378975 5.51153
2009-06-25 08:11:59 51°19.942 2°59.166 22.1295 0.075344 0.40283 5.546354
2009-06-25 08:12:04 51°19.947 2°59.186 22.1378 0.071845 0.383564 5.51153
2009-06-25 08:12:09 51°19.953 2°59.205 22.1352 0.075344 0.402865 5.51153
2009-06-25 08:12:14 51°19.958 2°59.224 22.1189 0.073904 0.394913 5.51153
2009-06-25 08:12:19 51°19.964 2°59.244 22.1364 0.073904 0.394913 5.51153
2009-06-25 08:12:24 51°19.969 2°59.263 22.118 0.073389 0.392072 5.51153
2009-06-25 08:12:29 51°19.974 2°59.282 22.1238 0.073698 0.393742 5.51153
2009-06-25 08:12:33 51°19.979 2°59.297 22.1368 0.072669 0.388091 5.51153
2009-06-25 08:12:39 51°19.986 2°59.32 22.1377 0.072977 0.38978 5.51153
2009-06-25 08:12:44 51°19.991 2°59.34 22.137 0.072875 0.389186 5.51153
2009-06-25 08:12:49 51°19.997 2°59.359 22.1363 0.072875 0.389186 5.51153
2009-06-25 08:12:53 51°20.001 2°59.374 22.1456 0.071434 0.38121 5.51153
2009-06-25 08:12:59 51°20.008 2°59.397 22.1322 0.067111 0.35743 5.51153
2009-06-25 08:13:04 51°20.014 2°59.415 22.1302 0.071742 0.382905 5.51153
2009-06-25 08:13:09 51°20.02 2°59.434 22.1276 0.07236 0.386342 5.476706
2009-06-25 08:13:13 51°20.025 2°59.449 22.1438 0.069787 0.372169 5.51153
2009-06-25 08:13:19 51°20.032 2°59.472 22.1392 0.069787 0.372169 5.51153
2009-06-25 08:13:24 51°20.038 2°59.49 22.1237 0.070919 0.378402 5.51153
2009-06-25 08:13:29 51°20.044 2°59.509 22.139 0.075962 0.40623 5.51153
2009-06-25 08:13:34 51°20.05 2°59.528 22.1395 0.07308 0.390368 5.476706
2009-06-25 08:13:39 51°20.055 2°59.547 22.153 0.071228 0.380148 5.476706
2009-06-25 08:13:44 51°20.061 2°59.567 22.1534 0.076476 0.409138 5.476706
2009-06-25 08:13:49 51°20.066 2°59.586 22.1588 0.076476 0.409138 5.476706
2009-06-25 08:13:54 51°20.072 2°59.605 22.1372 0.075036 0.401138 5.476706
2009-06-25 08:13:59 51°20.077 2°59.624 22.1454 0.076682 0.410228 5.476706
2009-06-25 08:14:04 51°20.082 2°59.643 22.1421 0.074418 0.397693 5.476706
2009-06-25 08:14:09 51°20.088 2°59.662 22.1532 0.071537 0.381771 5.476706
2009-06-25 08:14:14 51°20.094 2°59.682 22.1535 0.075859 0.405647 5.476706
2009-06-25 08:14:19 51°20.099 2°59.701 22.1416 0.075859 0.405647 5.476706
2009-06-25 08:14:24 51°20.105 2°59.72 22.1449 0.074315 0.397097 5.476706
2009-06-25 08:14:29 51°20.11 2°59.739 22.1529 0.073698 0.393628 5.476706
2009-06-25 08:14:34 51°20.115 2°59.758 22.1516 0.072772 0.388459 5.476706
2009-06-25 08:14:39 51°20.121 2°59.777 22.14 0.076476 0.408893 5.476706
2009-06-25 08:14:44 51°20.127 2°59.796 22.1535 0.06989 0.372589 5.476706
2009-06-25 08:14:49 51°20.132 2°59.815 22.1421 0.06989 0.372589 5.476706
2009-06-25 08:14:54 51°20.138 2°59.834 22.1396 0.071331 0.380539 5.476706
2009-06-25 08:14:59 51°20.144 2°59.853 22.1416 0.069581 0.370929 5.476706
2009-06-25 08:15:04 51°20.15 2°59.871 22.1562 0.082651 0.443251 5.476706
2009-06-25 08:15:09 51°20.155 2°59.89 22.1483 0.080799 0.433005 5.441882
2009-06-25 08:15:14 51°20.162 2°59.909 22.1575 0.080799 0.433005 5.441882
2009-06-25 08:15:19 51°20.167 2°59.928 22.1461 0.072772 0.388625 5.441882
2009-06-25 08:15:24 51°20.173 2°59.947 22.1488 0.074109 0.396002 5.476706
2009-06-25 08:15:29 51°20.179 2°59.966 22.1549 0.077197 0.413061 5.441882
2009-06-25 08:15:33 51°20.183 2°59.981 22.169 0.074007 0.395447 5.441882
2009-06-25 08:15:39 51°20.19 3°0.003 22.1512 0.077711 0.415916 5.441882
2009-06-25 08:15:45 51°20.197 3°0.026 22.1621 0.073286 0.391491 5.441882
2009-06-25 08:15:49 51°20.202 3°0.041 22.1634 0.073286 0.391491 5.441882
2009-06-25 08:15:53 51°20.207 3°0.056 22.167 0.073595 0.393188 5.441882
2009-06-25 08:15:59 51°20.213 3°0.078 22.1634 0.070508 0.376167 5.441882
2009-06-25 08:16:04 51°20.22 3°0.097 22.1687 0.078329 0.419379 5.441882
2009-06-25 08:16:09 51°20.225 3°0.116 22.1714 0.074418 0.397761 5.441882
2009-06-25 08:16:13 51°20.229 3°0.132 22.1685 0.072977 0.389814 5.441882
2009-06-25 08:16:19 51°20.236 3°0.155 22.1677 0.072977 0.389814 5.441882
2009-06-25 08:16:24 51°20.242 3°0.174 22.1778 0.072566 0.387536 5.441882
2009-06-25 08:16:29 51°20.247 3°0.194 22.1784 0.072257 0.38584 5.407058
2009-06-25 08:16:34 51°20.252 3°0.213 22.1784 0.071228 0.380167 5.441882
2009-06-25 08:16:39 51°20.258 3°0.232 22.1764 0.076991 0.412 5.441882
2009-06-25 08:16:44 51°20.263 3°0.251 22.1833 0.073801 0.394358 5.441882
2009-06-25 08:16:49 51°20.269 3°0.271 22.1791 0.073801 0.394358 5.441882
2009-06-25 08:16:54 51°20.274 3°0.29 22.1775 0.074727 0.399494 5.407058
2009-06-25 08:16:59 51°20.28 3°0.309 22.1815 0.077197 0.413167 5.441882
2009-06-25 08:17:04 51°20.286 3°0.328 22.1801 0.072051 0.384751 5.441882
2009-06-25 08:17:09 51°20.291 3°0.348 22.1695 0.082445 0.442321 5.441882
2009-06-25 08:17:14 51°20.297 3°0.367 22.1911 0.082445 0.442321 5.441882
2009-06-25 08:17:19 51°20.302 3°0.386 22.1885 0.076374 0.408688 5.407058
2009-06-25 08:17:24 51°20.308 3°0.405 22.1834 0.075139 0.401858 5.407058
2009-06-25 08:17:29 51°20.314 3°0.424 22.1921 0.076682 0.41039 5.407058
2009-06-25 08:17:34 51°20.319 3°0.444 22.1894 0.079667 0.426939 5.407058
2009-06-25 08:17:39 51°20.325 3°0.462 22.1969 0.072669 0.388224 5.407058
2009-06-25 08:17:44 51°20.331 3°0.481 22.1835 0.085842 0.461237 5.407058
2009-06-25 08:17:49 51°20.337 3°0.5 22.1884 0.085842 0.461237 5.407058
2009-06-25 08:17:54 51°20.343 3°0.519 22.182 0.074521 0.398405 5.407058
2009-06-25 08:17:59 51°20.349 3°0.537 22.1826 0.076888 0.411458 5.407058
2009-06-25 08:18:05 51°20.356 3°0.56 22.195 0.076374 0.408576 5.407058
2009-06-25 08:18:09 51°20.36 3°0.575 22.2028 0.076682 0.410235 5.407058
2009-06-25 08:18:13 51°20.365 3°0.59 22.2017 0.076682 0.410235 5.407058
2009-06-25 08:18:19 51°20.372 3°0.613 22.185 0.084607 0.454174 5.407058
2009-06-25 08:18:24 51°20.377 3°0.632 22.1804 0.07236 0.386368 5.407058
2009-06-25 08:18:29 51°20.383 3°0.651 22.2015 0.080696 0.432508 5.407058
2009-06-25 08:18:34 51°20.388 3°0.67 22.1895 0.079358 0.425052 5.407058
2009-06-25 08:18:39 51°20.394 3°0.689 22.2 0.079667 0.426778 5.407058
2009-06-25 08:18:44 51°20.399 3°0.708 22.1915 0.079667 0.426778 5.407058
2009-06-25 08:18:49 51°20.405 3°0.727 22.1815 0.077917 0.417084 5.407058
2009-06-25 08:18:53 51°20.409 3°0.742 22.1993 0.077814 0.416436 5.407058
2009-06-25 08:18:59 51°20.415 3°0.765 22.2019 0.075756 0.40505 5.372234
2009-06-25 08:19:04 51°20.421 3°0.784 22.214 0.075344 0.402803 5.407058
2009-06-25 08:19:09 51°20.426 3°0.804 22.1882 0.08543 0.458771 5.372234
2009-06-25 08:19:14 51°20.432 3°0.822 22.2061 0.074315 0.397199 5.372234
2009-06-25 08:19:19 51°20.437 3°0.841 22.1998 0.074315 0.397199 5.372234
2009-06-25 08:19:24 51°20.442 3°0.86 22.2134 0.077814 0.416464 5.372234
2009-06-25 08:19:29 51°20.448 3°0.879 22.1927 0.074109 0.395907 5.372234
2009-06-25 08:19:34 51°20.454 3°0.897 22.2199 0.077917 0.416905 5.372234
2009-06-25 08:19:39 51°20.46 3°0.916 22.2011 0.072463 0.386843 5.372234
2009-06-25 08:19:44 51°20.466 3°0.934 22.2072 0.069787 0.37215 5.372234
2009-06-25 08:19:49 51°20.471 3°0.953 22.2099 0.069787 0.37215 5.372234
2009-06-25 08:19:54 51°20.477 3°0.971 22.2148 0.075859 0.405682 5.372234
2009-06-25 08:19:59 51°20.483 3°0.99 22.2187 0.07555 0.404037 5.372234
2009-06-25 08:20:04 51°20.489 3°1.009 22.2232 0.072051 0.384718 5.372234
2009-06-25 08:20:09 51°20.494 3°1.028 22.2231 0.073183 0.39099 5.372234
2009-06-25 08:20:14 51°20.5 3°1.046 22.2156 0.073183 0.39099 5.372234
2009-06-25 08:20:19 51°20.506 3°1.065 22.1998 0.075036 0.401255 5.372234
2009-06-25 08:20:25 51°20.512 3°1.088 22.2047 0.07236 0.386441 5.372234
2009-06-25 08:20:29 51°20.517 3°1.103 22.2093 0.074933 0.400617 5.372234
2009-06-25 08:20:34 51°20.522 3°1.122 22.216 0.072772 0.388678 5.372234
2009-06-25 08:20:39 51°20.528 3°1.141 22.2159 0.07061 0.37674 5.33741
2009-06-25 08:20:44 51°20.533 3°1.161 22.2184 0.07061 0.37674 5.33741
2009-06-25 08:20:49 51°20.538 3°1.18 22.2135 0.072669 0.388064 5.372234
2009-06-25 08:20:53 51°20.543 3°1.195 22.2031 0.068449 0.364824 5.33741
2009-06-25 08:20:59 51°20.55 3°1.218 22.2195 0.074315 0.397145 5.33741
2009-06-25 08:21:04 51°20.555 3°1.238 22.2274 0.07236 0.386368 5.33741
2009-06-25 08:21:09 51°20.56 3°1.257 22.2111 0.071125 0.379568 5.33741
2009-06-25 08:21:13 51°20.565 3°1.272 22.215 0.069376 0.369961 5.33741
2009-06-25 08:21:19 51°20.571 3°1.295 22.2164 0.069376 0.369961 5.33741
2009-06-25 08:21:24 51°20.576 3°1.314 22.2015 0.07555 0.40403 5.33741
2009-06-25 08:21:29 51°20.58 3°1.334 22.2112 0.074418 0.39785 5.33741
2009-06-25 08:21:34 51°20.584 3°1.354 22.2224 0.082548 0.442908 5.33741
2009-06-25 08:21:39 51°20.587 3°1.375 22.2151 0.079358 0.425191 5.33741
2009-06-25 08:21:44 51°20.589 3°1.395 22.215 0.081828 0.438943 5.33741
2009-06-25 08:21:49 51°20.592 3°1.416 22.2106 0.081828 0.438943 5.33741
2009-06-25 08:21:54 51°20.594 3°1.436 22.2318 0.085224 0.457838 5.33741
2009-06-25 08:21:59 51°20.596 3°1.457 22.2274 0.083063 0.445791 5.302586
2009-06-25 08:22:04 51°20.598 3°1.477 22.2303 0.094075 0.507189 5.33741
2009-06-25 08:22:09 51°20.599 3°1.498 22.2359 0.075756 0.405196 5.33741
2009-06-25 08:22:14 51°20.601 3°1.519 22.2305 0.075756 0.405196 5.33741
2009-06-25 08:22:19 51°20.602 3°1.539 22.2389 0.085739 0.460648 5.302586
2009-06-25 08:22:24 51°20.604 3°1.56 22.2272 0.090267 0.485904 5.33741
2009-06-25 08:22:29 51°20.605 3°1.581 22.2235 0.082445 0.442321 5.33741
2009-06-25 08:22:34 51°20.607 3°1.602 22.2218 0.084092 0.451436 5.33741
2009-06-25 08:22:39 51°20.608 3°1.623 22.2312 0.082137 0.440522 5.302586
2009-06-25 08:22:45 51°20.61 3°1.648 22.2238 0.086768 0.466245 5.302586
2009-06-25 08:22:49 51°20.611 3°1.665 22.2405 0.086768 0.466245 5.302586
2009-06-25 08:22:54 51°20.612 3°1.686 22.2297 0.083783 0.449611 5.33741
2009-06-25 08:22:59 51°20.613 3°1.707 22.223 0.0773 0.413638 5.33741
2009-06-25 08:23:04 51°20.614 3°1.728 22.2261 0.08543 0.458803 5.302586
2009-06-25 08:23:09 51°20.615 3°1.749 22.2396 0.079049 0.423392 5.302586
2009-06-25 08:23:13 51°20.616 3°1.766 22.2297 0.087488 0.470316 5.302586
2009-06-25 08:23:19 51°20.617 3°1.792 22.2436 0.087488 0.470316 5.302586
2009-06-25 08:23:24 51°20.618 3°1.813 22.2288 0.082342 0.441734 5.302586
2009-06-25 08:23:29 51°20.619 3°1.834 22.2329 0.074315 0.397254 5.302586
2009-06-25 08:23:34 51°20.62 3°1.855 22.2436 0.080593 0.432012 5.302586
2009-06-25 08:23:39 51°20.621 3°1.876 22.2459 0.08296 0.445173 5.302586
2009-06-25 08:23:44 51°20.622 3°1.897 22.2453 0.08296 0.445173 5.302586
2009-06-25 08:23:49 51°20.623 3°1.918 22.239 0.074212 0.396719 5.302586
2009-06-25 08:23:54 51°20.625 3°1.939 22.2547 0.081519 0.437191 5.302586
2009-06-25 08:23:59 51°20.625 3°1.96 22.2514 0.080387 0.430921 5.302586
2009-06-25 08:24:04 51°20.627 3°1.982 22.2507 0.076579 0.409813 5.302586
2009-06-25 08:24:09 51°20.629 3°2.003 22.2553 0.082137 0.440681 5.302586
2009-06-25 08:24:14 51°20.63 3°2.023 22.2413 0.082137 0.440681 5.302586
2009-06-25 08:24:19 51°20.631 3°2.044 22.2646 0.087282 0.469339 5.302586
2009-06-25 08:24:24 51°20.632 3°2.065 22.252 0.094075 0.507285 5.267761
2009-06-25 08:24:29 51°20.634 3°2.086 22.2419 0.086356 0.464168 5.267761
2009-06-25 08:24:34 51°20.635 3°2.107 22.2485 0.090781 0.488854 5.302586
2009-06-25 08:24:39 51°20.637 3°2.128 22.2489 0.081622 0.4378 5.302586
2009-06-25 08:24:44 51°20.638 3°2.149 22.2423 0.085121 0.457226 5.267761
2009-06-25 08:24:49 51°20.64 3°2.17 22.2576 0.085121 0.457226 5.267761
2009-06-25 08:24:54 51°20.641 3°2.191 22.2506 0.075036 0.401262 5.267761
2009-06-25 08:24:59 51°20.644 3°2.212 22.2462 0.084298 0.452613 5.267761
2009-06-25 08:25:05 51°20.645 3°2.237 22.2538 0.088517 0.476096 5.267761
2009-06-25 08:25:09 51°20.646 3°2.254 22.2658 0.073492 0.392701 5.267761
2009-06-25 08:25:14 51°20.647 3°2.275 22.2426 0.086459 0.464629 5.267761
2009-06-25 08:25:19 51°20.65 3°2.295 22.26 0.086459 0.464629 5.267761
2009-06-25 08:25:24 51°20.651 3°2.316 22.2579 0.076579 0.409785 5.267761
2009-06-25 08:25:29 51°20.654 3°2.337 22.2643 0.081005 0.434319 5.267761
2009-06-25 08:25:34 51°20.655 3°2.358 22.2589 0.086459 0.464661 5.267761
2009-06-25 08:25:39 51°20.657 3°2.379 22.2676 0.080387 0.430892 5.267761
2009-06-25 08:25:44 51°20.658 3°2.4 22.2639 0.079152 0.424028 5.267761
2009-06-25 08:25:49 51°20.66 3°2.421 22.2686 0.079152 0.424028 5.267761
2009-06-25 08:25:53 51°20.662 3°2.437 22.2674 0.084401 0.45317 5.267761
2009-06-25 08:25:59 51°20.664 3°2.462 22.2592 0.08224 0.441154 5.267761
2009-06-25 08:26:04 51°20.666 3°2.483 22.2534 0.084709 0.454887 5.267761
2009-06-25 08:26:09 51°20.668 3°2.504 22.2681 0.092634 0.499152 5.267761
2009-06-25 08:26:14 51°20.669 3°2.525 22.2704 0.090164 0.485371 5.267761
2009-06-25 08:26:19 51°20.671 3°2.546 22.2652 0.090164 0.485371 5.267761
2009-06-25 08:26:24 51°20.673 3°2.567 22.266 0.083475 0.448087 5.232937
2009-06-25 08:26:29 51°20.675 3°2.588 22.2796 0.087694 0.471577 5.232937
2009-06-25 08:26:34 51°20.676 3°2.609 22.2595 0.085636 0.460099 5.232937
2009-06-25 08:26:39 51°20.677 3°2.63 22.2729 0.086459 0.464693 5.267761
2009-06-25 08:26:44 51°20.679 3°2.651 22.2828 0.09356 0.504361 5.232937
2009-06-25 08:26:49 51°20.68 3°2.672 22.282 0.09356 0.504361 5.232937
2009-06-25 08:26:54 51°20.681 3°2.693 22.279 0.086253 0.463562 5.232937
2009-06-25 08:26:59 51°20.683 3°2.714 22.2805 0.082034 0.440086 5.232937
2009-06-25 08:27:04 51°20.684 3°2.735 22.259 0.086768 0.46643 5.232937
2009-06-25 08:27:09 51°20.685 3°2.756 22.277 0.090164 0.485379 5.232937
2009-06-25 08:27:14 51°20.687 3°2.777 22.2687 0.090164 0.485379 5.232937
2009-06-25 08:27:19 51°20.689 3°2.798 22.2684 0.080593 0.432086 5.232937
2009-06-25 08:27:24 51°20.69 3°2.818 22.27 0.077094 0.41269 5.232937
2009-06-25 08:27:29 51°20.693 3°2.839 22.2841 0.090267 0.485937 5.232937
2009-06-25 08:27:34 51°20.694 3°2.859 22.286 0.086974 0.467521 5.232937
2009-06-25 08:27:39 51°20.696 3°2.88 22.2879 0.081931 0.439439 5.232937
2009-06-25 08:27:44 51°20.697 3°2.901 22.2821 0.081931 0.439439 5.232937
2009-06-25 08:27:49 51°20.698 3°2.922 22.2911 0.082137 0.440605 5.232937
2009-06-25 08:27:53 51°20.7 3°2.938 22.2901 0.08862 0.476711 5.232937
2009-06-25 08:27:59 51°20.701 3°2.963 22.2773 0.08121 0.435469 5.198113
2009-06-25 08:28:04 51°20.702 3°2.984 22.2834 0.083989 0.450895 5.198113
2009-06-25 08:28:09 51°20.704 3°3.005 22.2924 0.087076 0.468086 5.232937
2009-06-25 08:28:14 51°20.704 3°3.026 22.2855 0.089855 0.483563 5.198113
2009-06-25 08:28:19 51°20.706 3°3.046 22.2928 0.089855 0.483563 5.198113
2009-06-25 08:28:24 51°20.707 3°3.067 22.2863 0.08543 0.458882 5.198113
2009-06-25 08:28:29 51°20.708 3°3.088 22.2944 0.084607 0.454283 5.198113
2009-06-25 08:28:34 51°20.709 3°3.109 22.2966 0.087282 0.469217 5.198113
2009-06-25 08:28:39 51°20.71 3°3.13 22.2766 0.088723 0.477261 5.198113
2009-06-25 08:28:44 51°20.712 3°3.15 22.2989 0.082548 0.442984 5.198113
2009-06-25 08:28:49 51°20.712 3°3.171 22.2981 0.082548 0.442984 5.198113
2009-06-25 08:28:53 51°20.714 3°3.188 22.2975 0.086253 0.463666 5.198113
2009-06-25 08:28:59 51°20.716 3°3.212 22.2939 0.094589 0.510194 5.198113
2009-06-25 08:29:05 51°20.718 3°3.237 22.3011 0.084915 0.456119 5.198113
2009-06-25 08:29:09 51°20.72 3°3.253 22.2952 0.081622 0.437755 5.198113
2009-06-25 08:29:14 51°20.722 3°3.273 22.3116 0.081622 0.437755 5.198113
2009-06-25 08:29:20 51°20.724 3°3.298 22.3018 0.08543 0.458882 5.198113
2009-06-25 08:29:24 51°20.727 3°3.314 22.3011 0.08296 0.44515 5.163289
2009-06-25 08:29:29 51°20.73 3°3.335 22.3092 0.09109 0.490461 5.198113
2009-06-25 08:29:34 51°20.732 3°3.355 22.3065 0.07802 0.41774 5.198113
2009-06-25 08:29:39 51°20.734 3°3.375 22.2903 0.081931 0.439432 5.163289
2009-06-25 08:29:44 51°20.737 3°3.396 22.3014 0.08224 0.441147 5.198113
2009-06-25 08:29:49 51°20.74 3°3.416 22.3027 0.08224 0.441147 5.198113
2009-06-25 08:29:54 51°20.743 3°3.436 22.2961 0.084504 0.453734 5.198113
2009-06-25 08:29:59 51°20.746 3°3.456 22.3004 0.085121 0.457186 5.163289
2009-06-25 08:30:04 51°20.749 3°3.476 22.3103 0.082754 0.444006 5.163289
2009-06-25 08:30:09 51°20.752 3°3.496 22.308 0.075139 0.401789 5.163289
2009-06-25 08:30:13 51°20.754 3°3.513 22.3042 0.083166 0.446248 5.163289
2009-06-25 08:30:19 51°20.758 3°3.537 22.313 0.083166 0.446248 5.163289
2009-06-25 08:30:24 51°20.76 3°3.557 22.2988 0.079461 0.425674 5.163289
2009-06-25 08:30:29 51°20.763 3°3.577 22.3132 0.079461 0.425659 5.163289
2009-06-25 08:30:34 51°20.765 3°3.597 22.3131 0.082754 0.443945 5.163289
2009-06-25 08:30:39 51°20.769 3°3.617 22.3071 0.082137 0.440522 5.163289
2009-06-25 08:30:44 51°20.771 3°3.637 22.2952 0.079461 0.425696 5.163289
2009-06-25 08:30:49 51°20.774 3°3.657 22.311 0.079461 0.425696 5.163289
2009-06-25 08:30:54 51°20.777 3°3.678 22.3175 0.084504 0.453711 5.163289
2009-06-25 08:30:59 51°20.779 3°3.698 22.3185 0.088311 0.474923 5.163289
2009-06-25 08:31:04 51°20.782 3°3.718 22.3127 0.081313 0.435995 5.163289
2009-06-25 08:31:09 51°20.785 3°3.738 22.3069 0.089443 0.481265 5.163289
2009-06-25 08:31:14 51°20.787 3°3.758 22.3181 0.089443 0.481265 5.163289
2009-06-25 08:31:19 51°20.79 3°3.778 22.3183 0.085739 0.460616 5.163289
2009-06-25 08:31:25 51°20.794 3°3.803 22.33 0.079873 0.428022 5.128465
2009-06-25 08:31:29 51°20.797 3°3.819 22.3246 0.082754 0.444021 5.163289
2009-06-25 08:31:34 51°20.8 3°3.839 22.3209 0.084812 0.45546 5.128465
2009-06-25 08:31:39 51°20.803 3°3.859 22.3176 0.081416 0.436589 5.163289
2009-06-25 08:31:44 51°20.806 3°3.879 22.329 0.081931 0.439432 5.128465
2009-06-25 08:31:49 51°20.808 3°3.899 22.3308 0.081931 0.439432 5.128465
2009-06-25 08:31:53 51°20.811 3°3.915 22.3338 0.084915 0.456025 5.128465
2009-06-25 08:31:59 51°20.814 3°3.94 22.3312 0.080284 0.430276 5.128465
2009-06-25 08:32:04 51°20.817 3°3.961 22.3361 0.083886 0.450292 5.128465